Observation data for Lomax on 03/11/2018      Previous  Date  Next       Current Mesonet Observations  Soil Data  Daily Summary Page  Observations in Plain Language
KLO1 110600Z 28015KT 25/M06 A2985 RMK A01 T02491058  RH  013%=      5-min Rain = 0
KLO1 110601Z 27014KT 25/M06 A2985 RMK A01 T02481058  RH  013%=      5-min Rain = 0
KLO1 110602Z 27014KT 25/M06 A2985 RMK A01 T02481058  RH  013%=      5-min Rain = 0
KLO1 110603Z 27013KT 25/M06 A2985 RMK A01 T02501058  RH  012%=      5-min Rain = 0
KLO1 110604Z 27012KT 25/M06 A2985 RMK A01 T02511058  RH  012%=      5-min Rain = 0
KLO1 110605Z 27013KT 25/M06 A2985 RMK A01 T02501058  RH  012%=      5-min Rain = 0
KLO1 110606Z 27013KT 25/M06 A2985 RMK A01 T02491059  RH  012%=      5-min Rain = 0
KLO1 110607Z 27013KT 25/M06 A2985 RMK A01 T02501059  RH  012%=      5-min Rain = 0
KLO1 110608Z 26010KT 25/M06 A2985 RMK A01 T02501060  RH  012%=      5-min Rain = 0
KLO1 110609Z 26010KT 25/M06 A2985 RMK A01 T02471060  RH  013%=      5-min Rain = 0
KLO1 110610Z 26010KT 24/M06 A2985 RMK A01 T02431060  RH  013%=      5-min Rain = 0
KLO1 110611Z 26011KT 24/M06 A2984 RMK A01 T02401060  RH  013%=      5-min Rain = 0
KLO1 110612Z 26009KT 24/M06 A2984 RMK A01 T02421060  RH  013%=      5-min Rain = 0
KLO1 110613Z 26009KT 24/M06 A2984 RMK A01 T02411061  RH  013%=      5-min Rain = 0
KLO1 110614Z 26007KT 24/M06 A2984 RMK A01 T02381061  RH  013%=      5-min Rain = 0
KLO1 110615Z 26008KT 23/M06 A2984 RMK A01 T02341061  RH  013%=      5-min Rain = 0
KLO1 110616Z 25009KT 23/M06 A2984 RMK A01 T02321062  RH  014%=      5-min Rain = 0
KLO1 110617Z 25009KT 23/M06 A2984 RMK A01 T02311061  RH  014%=      5-min Rain = 0
KLO1 110618Z 25009KT 23/M06 A2984 RMK A01 T02291061  RH  014%=      5-min Rain = 0
KLO1 110619Z 25010KT 23/M06 A2984 RMK A01 T02271061  RH  014%=      5-min Rain = 0
KLO1 110620Z 25010KT 23/M06 A2984 RMK A01 T02251061  RH  014%=      5-min Rain = 0
KLO1 110621Z 25010KT 22/M06 A2984 RMK A01 T02241061  RH  014%=      5-min Rain = 0
KLO1 110622Z 24010KT 22/M06 A2984 RMK A01 T02241060  RH  014%=      5-min Rain = 0
KLO1 110623Z 25010KT 23/M06 A2984 RMK A01 T02251061  RH  014%=      5-min Rain = 0
KLO1 110624Z 25009KT 22/M06 A2984 RMK A01 T02231062  RH  014%=      5-min Rain = 0
KLO1 110625Z 25009KT 22/M06 A2984 RMK A01 T02211063  RH  014%=      5-min Rain = 0
KLO1 110626Z 25009KT 22/M06 A2984 RMK A01 T02201062  RH  015%=      5-min Rain = 0
KLO1 110627Z 24009KT 22/M06 A2984 RMK A01 T02191062  RH  015%=      5-min Rain = 0
KLO1 110628Z 24009KT 22/M06 A2984 RMK A01 T02171062  RH  015%=      5-min Rain = 0
KLO1 110629Z 24009KT 22/M06 A2984 RMK A01 T02161063  RH  015%=      5-min Rain = 0
KLO1 110630Z 24009KT 22/M06 A2984 RMK A01 T02151063  RH  015%=      5-min Rain = 0
KLO1 110631Z 24010KT 22/M06 A2984 RMK A01 T02151063  RH  015%=      5-min Rain = 0
KLO1 110632Z 24009KT 21/M06 A2984 RMK A01 T02131063  RH  015%=      5-min Rain = 0
KLO1 110633Z 24009KT 21/M06 A2984 RMK A01 T02121063  RH  015%=      5-min Rain = 0
KLO1 110634Z 24008KT 21/M06 A2983 RMK A01 T02111063  RH  015%=      5-min Rain = 0
KLO1 110635Z 24008KT 21/M06 A2983 RMK A01 T02101064  RH  015%=      5-min Rain = 0
KLO1 110636Z 23008KT 21/M06 A2983 RMK A01 T02101064  RH  015%=      5-min Rain = 0
KLO1 110637Z 23007KT 21/M07 A2983 RMK A01 T02091065  RH  015%=      5-min Rain = 0
KLO1 110638Z 23008KT 21/M07 A2983 RMK A01 T02071065  RH  015%=      5-min Rain = 0
KLO1 110639Z 23008KT 20/M07 A2983 RMK A01 T02041066  RH  016%=      5-min Rain = 0
KLO1 110640Z 23008KT 20/M07 A2983 RMK A01 T02021065  RH  016%=      5-min Rain = 0
KLO1 110641Z 23008KT 20/M06 A2983 RMK A01 T02001063  RH  016%=      5-min Rain = 0
KLO1 110642Z 23008KT 20/M06 A2983 RMK A01 T01981062  RH  017%=      5-min Rain = 0
KLO1 110643Z 24008KT 20/M06 A2983 RMK A01 T01971061  RH  017%=      5-min Rain = 0
KLO1 110644Z 24008KT 20/M06 A2984 RMK A01 T01961061  RH  017%=      5-min Rain = 0
KLO1 110645Z 24008KT 19/M06 A2984 RMK A01 T01941062  RH  017%=      5-min Rain = 0
KLO1 110646Z 24008KT 19/M06 A2984 RMK A01 T01931062  RH  017%=      5-min Rain = 0
KLO1 110647Z 25009KT 19/M06 A2984 RMK A01 T01911062  RH  017%=      5-min Rain = 0
KLO1 110648Z 25008KT 19/M06 A2984 RMK A01 T01901062  RH  017%=      5-min Rain = 0
KLO1 110649Z 25008KT 19/M06 A2984 RMK A01 T01881063  RH  018%=      5-min Rain = 0
KLO1 110650Z 25009KT 19/M06 A2984 RMK A01 T01861063  RH  018%=      5-min Rain = 0
KLO1 110651Z 25009KT 18/M06 A2984 RMK A01 T01841063  RH  018%=      5-min Rain = 0
KLO1 110652Z 26010KT 18/M06 A2984 RMK A01 T01831062  RH  018%=      5-min Rain = 0
KLO1 110653Z 25010KT 18/M06 A2985 RMK A01 T01821062  RH  018%=      5-min Rain = 0
KLO1 110654Z 26011KT 18/M06 A2985 RMK A01 T01821061  RH  019%=      5-min Rain = 0
KLO1 110655Z 26011KT 18/M06 A2985 RMK A01 T01821062  RH  019%=      5-min Rain = 0
KLO1 110656Z 26011KT 18/M06 A2985 RMK A01 T01821062  RH  018%=      5-min Rain = 0
KLO1 110657Z 25011KT 18/M06 A2985 RMK A01 T01841063  RH  018%=      5-min Rain = 0
KLO1 110658Z 26011KT 19/M06 A2985 RMK A01 T01871063  RH  018%=      5-min Rain = 0
KLO1 110659Z 26010KT 19/M06 A2985 RMK A01 T01921064  RH  017%=      5-min Rain = 0
KLO1 110700Z 25011KT 19/M07 A2985 RMK A01 T01941065  RH  017%=      5-min Rain = 0
KLO1 110701Z 25011KT 20/M07 A2985 RMK A01 T01961066  RH  016%=      5-min Rain = 0
KLO1 110702Z 25011KT 20/M07 A2985 RMK A01 T01961067  RH  016%=      5-min Rain = 0
KLO1 110703Z 25011KT 20/M07 A2985 RMK A01 T01961068  RH  016%=      5-min Rain = 0
KLO1 110704Z 25012KT 20/M07 A2985 RMK A01 T01981069  RH  016%=      5-min Rain = 0
KLO1 110705Z 26011KT 20/M07 A2986 RMK A01 T01991069  RH  016%=      5-min Rain = 0
KLO1 110706Z 27010KT 20/M07 A2986 RMK A01 T02001070  RH  016%=      5-min Rain = 0
KLO1 110707Z 28012KT 20/M07 A2987 RMK A01 T01991070  RH  016%=      5-min Rain = 0
KLO1 110708Z 28013KT 20/M07 A2987 RMK A01 T01951072  RH  016%=      5-min Rain = 0
KLO1 110709Z 27012KT 19/M07 A2987 RMK A01 T01931073  RH  016%=      5-min Rain = 0
KLO1 110710Z 27012KT 19/M07 A2987 RMK A01 T01931073  RH  016%=      5-min Rain = 0
KLO1 110711Z 27011KT 19/M07 A2987 RMK A01 T01941072  RH  016%=      5-min Rain = 0
KLO1 110712Z 27010KT 20/M07 A2987 RMK A01 T01961073  RH  016%=      5-min Rain = 0
KLO1 110713Z 27010KT 20/M07 A2987 RMK A01 T01961073  RH  015%=      5-min Rain = 0
KLO1 110714Z 27009KT 20/M07 A2987 RMK A01 T01951074  RH  016%=      5-min Rain = 0
KLO1 110715Z 27009KT 19/M07 A2987 RMK A01 T01931074  RH  016%=      5-min Rain = 0
KLO1 110716Z 28008KT 19/M07 A2987 RMK A01 T01901074  RH  016%=      5-min Rain = 0
KLO1 110717Z 28010KT 19/M07 A2987 RMK A01 T01881074  RH  016%=      5-min Rain = 0
KLO1 110718Z 28009KT 19/M07 A2987 RMK A01 T01861074  RH  016%=      5-min Rain = 0
KLO1 110719Z 28010KT 19/M07 A2987 RMK A01 T01851074  RH  017%=      5-min Rain = 0
KLO1 110720Z 28009KT 18/M07 A2987 RMK A01 T01841073  RH  017%=      5-min Rain = 0
KLO1 110721Z 28009KT 18/M07 A2987 RMK A01 T01831073  RH  017%=      5-min Rain = 0
KLO1 110722Z 28010KT 18/M07 A2987 RMK A01 T01821073  RH  017%=      5-min Rain = 0
KLO1 110723Z 28010KT 18/M07 A2987 RMK A01 T01821073  RH  017%=      5-min Rain = 0
KLO1 110724Z 28010KT 18/M07 A2987 RMK A01 T01811074  RH  017%=      5-min Rain = 0
KLO1 110725Z 28009KT 18/M07 A2987 RMK A01 T01801074  RH  017%=      5-min Rain = 0
KLO1 110726Z 28009KT 18/M07 A2986 RMK A01 T01801074  RH  017%=      5-min Rain = 0
KLO1 110727Z 28009KT 18/M07 A2986 RMK A01 T01801074  RH  017%=      5-min Rain = 0
KLO1 110728Z 28009KT 18/M07 A2986 RMK A01 T01801074  RH  017%=      5-min Rain = 0
KLO1 110729Z 28009KT 18/M07 A2987 RMK A01 T01791074  RH  017%=      5-min Rain = 0
KLO1 110730Z 28009KT 18/M07 A2987 RMK A01 T01791073  RH  017%=      5-min Rain = 0
KLO1 110731Z 28008KT 18/M07 A2987 RMK A01 T01781074  RH  017%=      5-min Rain = 0
KLO1 110732Z 28008KT 18/M07 A2987 RMK A01 T01771074  RH  017%=      5-min Rain = 0
KLO1 110733Z 28008KT 18/M07 A2987 RMK A01 T01761073  RH  018%=      5-min Rain = 0
KLO1 110734Z 28008KT 18/M07 A2986 RMK A01 T01751074  RH  018%=      5-min Rain = 0
KLO1 110735Z 28008KT 17/M07 A2986 RMK A01 T01741074  RH  018%=      5-min Rain = 0
KLO1 110736Z 28008KT 17/M07 A2987 RMK A01 T01731074  RH  018%=      5-min Rain = 0
KLO1 110737Z 28009KT 17/M07 A2987 RMK A01 T01731074  RH  018%=      5-min Rain = 0
KLO1 110738Z 28009KT 17/M07 A2987 RMK A01 T01721074  RH  018%=      5-min Rain = 0
KLO1 110739Z 28008KT 17/M07 A2987 RMK A01 T01721074  RH  018%=      5-min Rain = 0
KLO1 110740Z 28009KT 17/M07 A2987 RMK A01 T01721074  RH  018%=      5-min Rain = 0
KLO1 110741Z 28009KT 17/M07 A2986 RMK A01 T01721074  RH  018%=      5-min Rain = 0
KLO1 110742Z 28009KT 17/M07 A2987 RMK A01 T01721074  RH  018%=      5-min Rain = 0
KLO1 110743Z 28009KT 17/M07 A2987 RMK A01 T01731074  RH  018%=      5-min Rain = 0
KLO1 110744Z 29009KT 17/M07 A2987 RMK A01 T01721074  RH  018%=      5-min Rain = 0
KLO1 110745Z 30008KT 17/M07 A2987 RMK A01 T01721074  RH  018%=      5-min Rain = 0
KLO1 110746Z 30008KT 17/M07 A2987 RMK A01 T01711074  RH  018%=      5-min Rain = 0
KLO1 110747Z 30008KT 17/M07 A2987 RMK A01 T01711074  RH  018%=      5-min Rain = 0
KLO1 110748Z 31008KT 17/M08 A2987 RMK A01 T01701076  RH  018%=      5-min Rain = 0
KLO1 110749Z 31009KT 17/M08 A2988 RMK A01 T01691077  RH  018%=      5-min Rain = 0
KLO1 110750Z 31009KT 17/M08 A2988 RMK A01 T01671078  RH  018%=      5-min Rain = 0
KLO1 110751Z 31008KT 17/M08 A2988 RMK A01 T01651077  RH  018%=      5-min Rain = 0
KLO1 110752Z 31009KT 17/M08 A2988 RMK A01 T01651077  RH  018%=      5-min Rain = 0
KLO1 110753Z 32009KT 16/M08 A2988 RMK A01 T01641078  RH  018%=      5-min Rain = 0
KLO1 110754Z 33008KT 16/M08 A2988 RMK A01 T01641078  RH  018%=      5-min Rain = 0
KLO1 110755Z 33007KT 16/M08 A2988 RMK A01 T01631079  RH  018%=      5-min Rain = 0
KLO1 110756Z 33008KT 16/M08 A2988 RMK A01 T01611080  RH  018%=      5-min Rain = 0
KLO1 110757Z 33008KT 16/M08 A2988 RMK A01 T01591080  RH  019%=      5-min Rain = 0
KLO1 110758Z 33008KT 16/M08 A2988 RMK A01 T01581080  RH  019%=      5-min Rain = 0
KLO1 110759Z 33009KT 16/M08 A2988 RMK A01 T01561079  RH  019%=      5-min Rain = 0
KLO1 110800Z 33008KT 16/M08 A2988 RMK A01 T01551079  RH  019%=      5-min Rain = 0
KLO1 110801Z 33009KT 16/M08 A2988 RMK A01 T01571077  RH  019%=      5-min Rain = 0
KLO1 110802Z 34010KT 16/M08 A2988 RMK A01 T01611076  RH  019%=      5-min Rain = 0
KLO1 110803Z 34011KT 17/M07 A2988 RMK A01 T01661074  RH  019%=      5-min Rain = 0
KLO1 110804Z 35011KT 17/M07 A2988 RMK A01 T01701073  RH  018%=      5-min Rain = 0
KLO1 110805Z 36010KT 17/M07 A2988 RMK A01 T01731073  RH  018%=      5-min Rain = 0
KLO1 110806Z 35011KT 17/M07 A2988 RMK A01 T01741073  RH  018%=      5-min Rain = 0
KLO1 110807Z 00012KT 18/M07 A2988 RMK A01 T01771072  RH  018%=      5-min Rain = 0
KLO1 110808Z 36013KT 18/M07 A2988 RMK A01 T01791071  RH  017%=      5-min Rain = 0
KLO1 110809Z 00014KT 18/M07 A2988 RMK A01 T01821072  RH  017%=      5-min Rain = 0
KLO1 110810Z 00013KT 18/M07 A2988 RMK A01 T01821073  RH  017%=      5-min Rain = 0
KLO1 110811Z 00013KT 18/M07 A2988 RMK A01 T01821074  RH  017%=      5-min Rain = 0
KLO1 110812Z 01014KT 18/M08 A2989 RMK A01 T01811075  RH  017%=      5-min Rain = 0
KLO1 110813Z 01014KT 18/M08 A2989 RMK A01 T01811077  RH  016%=      5-min Rain = 0
KLO1 110814Z 01014KT 18/M08 A2989 RMK A01 T01811078  RH  016%=      5-min Rain = 0
KLO1 110815Z 01012KT 18/M08 A2989 RMK A01 T01791079  RH  016%=      5-min Rain = 0
KLO1 110816Z 01014G19KT 18/M08 A2989 RMK A01 T01781080  RH  017%=      5-min Rain = 0
KLO1 110817Z 01013KT 18/M08 A299 RMK A01 T01781079  RH  017%=      5-min Rain = 0
KLO1 110818Z 01013G19KT 18/M08 A299 RMK A01 T01781078  RH  017%=      5-min Rain = 0
KLO1 110819Z 01013KT 18/M08 A299 RMK A01 T01761077  RH  017%=      5-min Rain = 0
KLO1 110820Z 02014G19KT 18/M08 A299 RMK A01 T01751077  RH  017%=      5-min Rain = 0
KLO1 110821Z 01015KT 17/M08 A299 RMK A01 T01741079  RH  017%=      5-min Rain = 0
KLO1 110822Z 01015KT 17/M08 A299 RMK A01 T01731079  RH  017%=      5-min Rain = 0
KLO1 110823Z 02015KT 17/M08 A299 RMK A01 T01731080  RH  017%=      5-min Rain = 0
KLO1 110824Z 02014KT 17/M08 A299 RMK A01 T01731081  RH  017%=      5-min Rain = 0
KLO1 110825Z 01013KT 17/M08 A299 RMK A01 T01731081  RH  017%=      5-min Rain = 0
KLO1 110826Z 02018KT 17/M08 A299 RMK A01 T01721081  RH  017%=      5-min Rain = 0
KLO1 110827Z 02016KT 17/M08 A299 RMK A01 T01741081  RH  017%=      5-min Rain = 0
KLO1 110828Z 02017KT 17/M08 A2991 RMK A01 T01741080  RH  017%=      5-min Rain = 0
KLO1 110829Z 02018G23KT 17/M08 A2991 RMK A01 T01741081  RH  017%=      5-min Rain = 0
KLO1 110830Z 02022KT 18/M08 A2991 RMK A01 T01751080  RH  017%=      5-min Rain = 0
KLO1 110831Z 03018KT 18/M08 A2991 RMK A01 T01761078  RH  017%=      5-min Rain = 0
KLO1 110832Z 03018KT 18/M08 A2991 RMK A01 T01761078  RH  017%=      5-min Rain = 0
KLO1 110833Z 02022G28KT 18/M08 A2991 RMK A01 T01751075  RH  017%=      5-min Rain = 0
KLO1 110834Z 02021G26KT 18/M07 A2991 RMK A01 T01751073  RH  018%=      5-min Rain = 0
KLO1 110835Z 02020KT 18/M07 A2991 RMK A01 T01751071  RH  018%=      5-min Rain = 0
KLO1 110836Z 02020KT 17/M07 A2991 RMK A01 T01741069  RH  018%=      5-min Rain = 0
KLO1 110837Z 02025G33KT 17/M07 A2991 RMK A01 T01731065  RH  019%=      5-min Rain = 0
KLO1 110838Z 02026G33KT 17/M06 A2991 RMK A01 T01731058  RH  020%=      5-min Rain = 0
KLO1 110839Z 02023G28KT 17/M06 A2991 RMK A01 T01731055  RH  021%=      5-min Rain = 0
KLO1 110840Z 02022KT 17/M05 A2991 RMK A01 T01731053  RH  021%=      5-min Rain = 0
KLO1 110841Z 02020KT 17/M05 A2991 RMK A01 T01711051  RH  021%=      5-min Rain = 0
KLO1 110842Z 02023G29KT 17/M05 A2991 RMK A01 T01701049  RH  022%=      5-min Rain = 0
KLO1 110843Z 02024KT 17/M04 A2991 RMK A01 T01691041  RH  024%=      5-min Rain = 0
KLO1 110844Z 03023G28KT 17/M04 A2991 RMK A01 T01701035  RH  024%=      5-min Rain = 0
KLO1 110845Z 03024KT 17/M03 A2991 RMK A01 T01691030  RH  025%=      5-min Rain = 0
KLO1 110846Z 03027G32KT 17/M03 A2991 RMK A01 T01691025  RH  026%=      5-min Rain = 0
KLO1 110847Z 02023KT 17/M02 A2991 RMK A01 T01681022  RH  027%=      5-min Rain = 0
KLO1 110848Z 03025G33KT 17/M02 A2991 RMK A01 T01671019  RH  028%=      5-min Rain = 0
KLO1 110849Z 03025KT 17/M01 A2991 RMK A01 T01671013  RH  029%=      5-min Rain = 0
KLO1 110850Z 03023KT 17/M01 A2991 RMK A01 T01661009  RH  030%=      5-min Rain = 0
KLO1 110851Z 03024KT 17/M01 A2991 RMK A01 T01661007  RH  031%=      5-min Rain = 0
KLO1 110852Z 03022G27KT 17/M01 A2991 RMK A01 T01651006  RH  031%=      5-min Rain = 0
KLO1 110853Z 03024KT 16/00 A2991 RMK A01 T01640000  RH  033%=      5-min Rain = 0
KLO1 110854Z 04025KT 16/01 A2992 RMK A01 T01640005  RH  034%=      5-min Rain = 0
KLO1 110855Z 03021KT 16/01 A2991 RMK A01 T01640009  RH  035%=      5-min Rain = 0
KLO1 110856Z 03022G28KT 16/01 A2991 RMK A01 T01630013  RH  036%=      5-min Rain = 0
KLO1 110857Z 04024KT 16/02 A2992 RMK A01 T01630017  RH  037%=      5-min Rain = 0
KLO1 110858Z 04023G28KT 16/02 A2992 RMK A01 T01630023  RH  039%=      5-min Rain = 0
KLO1 110859Z 04023KT 16/03 A2992 RMK A01 T01630025  RH  039%=      5-min Rain = 0
KLO1 110900Z 03022KT 16/03 A2992 RMK A01 T01630027  RH  040%=      5-min Rain = 0
KLO1 110901Z 04022KT 16/03 A2992 RMK A01 T01620030  RH  041%=      5-min Rain = 0
KLO1 110902Z 04020KT 16/03 A2992 RMK A01 T01620032  RH  042%=      5-min Rain = 0
KLO1 110903Z 04023G28KT 16/04 A2992 RMK A01 T01620037  RH  043%=      5-min Rain = 0
KLO1 110904Z 04021KT 16/04 A2992 RMK A01 T01620039  RH  044%=      5-min Rain = 0
KLO1 110905Z 04026KT 16/04 A2992 RMK A01 T01620042  RH  045%=      5-min Rain = 0
KLO1 110906Z 04024KT 16/05 A2992 RMK A01 T01620046  RH  046%=      5-min Rain = 0
KLO1 110907Z 04024G29KT 16/05 A2992 RMK A01 T01620048  RH  047%=      5-min Rain = 0
KLO1 110908Z 04023KT 16/05 A2992 RMK A01 T01620048  RH  047%=      5-min Rain = 0
KLO1 110909Z 04025G30KT 16/05 A2992 RMK A01 T01610051  RH  048%=      5-min Rain = 0
KLO1 110910Z 04025G30KT 16/05 A2992 RMK A01 T01610053  RH  049%=      5-min Rain = 0
KLO1 110911Z 04024KT 16/05 A2992 RMK A01 T01610054  RH  049%=      5-min Rain = 0
KLO1 110912Z 04021G27KT 16/06 A2992 RMK A01 T01610055  RH  050%=      5-min Rain = 0
KLO1 110913Z 04023G28KT 16/06 A2992 RMK A01 T01600056  RH  050%=      5-min Rain = 0
KLO1 110914Z 04026G32KT 16/06 A2992 RMK A01 T01600058  RH  051%=      5-min Rain = 0
KLO1 110915Z 04024KT 16/06 A2992 RMK A01 T01600060  RH  051%=      5-min Rain = 0
KLO1 110916Z 04025KT 16/06 A2992 RMK A01 T01600060  RH  051%=      5-min Rain = 0
KLO1 110917Z 04026G32KT 16/06 A2992 RMK A01 T01600062  RH  052%=      5-min Rain = 0
KLO1 110918Z 04026G32KT 16/06 A2992 RMK A01 T01600063  RH  052%=      5-min Rain = 0
KLO1 110919Z 03023KT 16/06 A2992 RMK A01 T01600064  RH  053%=      5-min Rain = 0
KLO1 110920Z 04026KT 16/06 A2992 RMK A01 T01590064  RH  053%=      5-min Rain = 0
KLO1 110921Z 04026KT 16/07 A2992 RMK A01 T01590065  RH  053%=      5-min Rain = 0
KLO1 110922Z 03026KT 16/07 A2992 RMK A01 T01590065  RH  054%=      5-min Rain = 0
KLO1 110923Z 04023G30KT 16/07 A2992 RMK A01 T01590066  RH  054%=      5-min Rain = 0
KLO1 110924Z 04025G31KT 16/07 A2992 RMK A01 T01580066  RH  054%=      5-min Rain = 0
KLO1 110925Z 03023KT 16/07 A2992 RMK A01 T01580068  RH  055%=      5-min Rain = 0
KLO1 110926Z 04022KT 16/07 A2992 RMK A01 T01580067  RH  055%=      5-min Rain = 0
KLO1 110927Z 03023KT 16/07 A2992 RMK A01 T01570068  RH  055%=      5-min Rain = 0
KLO1 110928Z 04023G28KT 16/07 A2992 RMK A01 T01570069  RH  056%=      5-min Rain = 0
KLO1 110929Z 04023G29KT 16/07 A2992 RMK A01 T01570069  RH  056%=      5-min Rain = 0
KLO1 110930Z 04026KT 16/07 A2992 RMK A01 T01570071  RH  057%=      5-min Rain = 0
KLO1 110931Z 03022KT 16/07 A2992 RMK A01 T01570071  RH  057%=      5-min Rain = 0
KLO1 110932Z 04021KT 16/07 A2993 RMK A01 T01570071  RH  057%=      5-min Rain = 0
KLO1 110933Z 04025KT 16/07 A2993 RMK A01 T01560072  RH  057%=      5-min Rain = 0
KLO1 110934Z 04022KT 16/07 A2993 RMK A01 T01560073  RH  058%=      5-min Rain = 0
KLO1 110935Z 03020KT 16/07 A2993 RMK A01 T01560074  RH  058%=      5-min Rain = 0
KLO1 110936Z 03022KT 16/07 A2993 RMK A01 T01560074  RH  058%=      5-min Rain = 0
KLO1 110937Z 03021KT 16/08 A2993 RMK A01 T01560077  RH  059%=      5-min Rain = 0
KLO1 110938Z 03022G27KT 16/08 A2993 RMK A01 T01560077  RH  060%=      5-min Rain = 0
KLO1 110939Z 03022G28KT 16/08 A2993 RMK A01 T01560079  RH  060%=      5-min Rain = 0
KLO1 110940Z 03023KT 16/08 A2993 RMK A01 T01560081  RH  061%=      5-min Rain = 0
KLO1 110941Z 03022G28KT 16/08 A2993 RMK A01 T01560081  RH  061%=      5-min Rain = 0
KLO1 110942Z 03021G26KT 16/08 A2993 RMK A01 T01560082  RH  061%=      5-min Rain = 0
KLO1 110943Z 03022G27KT 16/08 A2993 RMK A01 T01560082  RH  062%=      5-min Rain = 0
KLO1 110944Z 03017KT 16/08 A2993 RMK A01 T01560083  RH  062%=      5-min Rain = 0
KLO1 110945Z 03019G25KT 16/08 A2994 RMK A01 T01550082  RH  062%=      5-min Rain = 0
KLO1 110946Z 04022KT 16/08 A2994 RMK A01 T01550084  RH  063%=      5-min Rain = 0
KLO1 110947Z 03021KT 16/09 A2994 RMK A01 T01550085  RH  063%=      5-min Rain = 0
KLO1 110948Z 04019KT 16/09 A2994 RMK A01 T01550085  RH  063%=      5-min Rain = 0
KLO1 110949Z 03021G32KT 16/09 A2994 RMK A01 T01550086  RH  063%=      5-min Rain = 0
KLO1 110950Z 03022KT 16/09 A2994 RMK A01 T01550088  RH  064%=      5-min Rain = 0
KLO1 110951Z 03024KT 16/09 A2994 RMK A01 T01550089  RH  065%=      5-min Rain = 0
KLO1 110952Z 03022KT 16/09 A2994 RMK A01 T01550090  RH  065%=      5-min Rain = 0
KLO1 110953Z 03022G28KT 16/09 A2994 RMK A01 T01550091  RH  066%=      5-min Rain = 0
KLO1 110954Z 03022G30KT 16/09 A2994 RMK A01 T01550092  RH  066%=      5-min Rain = 0
KLO1 110955Z 03027G32KT 16/09 A2994 RMK A01 T01550093  RH  066%=      5-min Rain = 0
KLO1 110956Z 03022G27KT 16/09 A2994 RMK A01 T01550093  RH  067%=      5-min Rain = 0
KLO1 110957Z 03023KT 16/09 A2994 RMK A01 T01550093  RH  067%=      5-min Rain = 0
KLO1 110958Z 03023G28KT 16/09 A2995 RMK A01 T01550093  RH  067%=      5-min Rain = 0
KLO1 110959Z 03021KT 16/09 A2995 RMK A01 T01550093  RH  066%=      5-min Rain = 0
KLO1 111000Z 03029G36KT 16/09 A2995 RMK A01 T01550091  RH  066%=      5-min Rain = 0
KLO1 111001Z 03029G34KT 15/09 A2995 RMK A01 T01540089  RH  065%=      5-min Rain = 0
KLO1 111002Z 03025KT 15/09 A2995 RMK A01 T01540087  RH  064%=      5-min Rain = 0
KLO1 111003Z 03027G33KT 15/09 A2995 RMK A01 T01540086  RH  064%=      5-min Rain = 0
KLO1 111004Z 03029G34KT 15/08 A2995 RMK A01 T01530083  RH  063%=      5-min Rain = 0
KLO1 111005Z 03031G36KT 15/08 A2995 RMK A01 T01530081  RH  062%=      5-min Rain = 0
KLO1 111006Z 03025KT 15/08 A2995 RMK A01 T01520079  RH  062%=      5-min Rain = 0
KLO1 111007Z 03023KT 15/08 A2996 RMK A01 T01520078  RH  061%=      5-min Rain = 0
KLO1 111008Z 03025G32KT 15/08 A2996 RMK A01 T01520078  RH  061%=      5-min Rain = 0
KLO1 111009Z 02025G31KT 15/08 A2996 RMK A01 T01510076  RH  061%=      5-min Rain = 0
KLO1 111010Z 02025KT 15/07 A2996 RMK A01 T01510074  RH  060%=      5-min Rain = 0
KLO1 111011Z 02019KT 15/07 A2996 RMK A01 T01510072  RH  059%=      5-min Rain = 0
KLO1 111012Z 02022G31KT 15/07 A2996 RMK A01 T01500070  RH  059%=      5-min Rain = 0
KLO1 111013Z 02022G28KT 15/07 A2997 RMK A01 T01490065  RH  057%=      5-min Rain = 0
KLO1 111014Z 01017G22KT 15/06 A2996 RMK A01 T01490061  RH  056%=      5-min Rain = 0
KLO1 111015Z 01019KT 15/06 A2996 RMK A01 T01480057  RH  054%=      5-min Rain = 0
KLO1 111016Z 02021G26KT 15/05 A2997 RMK A01 T01470054  RH  053%=      5-min Rain = 0
KLO1 111017Z 02021G26KT 15/05 A2997 RMK A01 T01470051  RH  053%=      5-min Rain = 0
KLO1 111018Z 02024KT 15/05 A2997 RMK A01 T01460047  RH  051%=      5-min Rain = 0
KLO1 111019Z 02020G25KT 15/04 A2997 RMK A01 T01450043  RH  050%=      5-min Rain = 0
KLO1 111020Z 02023KT 15/04 A2997 RMK A01 T01450041  RH  050%=      5-min Rain = 0
KLO1 111021Z 02020KT 15/04 A2997 RMK A01 T01450039  RH  049%=      5-min Rain = 0
KLO1 111022Z 02020G28KT 14/04 A2998 RMK A01 T01440037  RH  048%=      5-min Rain = 0
KLO1 111023Z 02021KT 14/03 A2998 RMK A01 T01440034  RH  048%=      5-min Rain = 0
KLO1 111024Z 02020KT 14/03 A2998 RMK A01 T01430031  RH  047%=      5-min Rain = 0
KLO1 111025Z 02020G29KT 14/03 A2998 RMK A01 T01430029  RH  046%=      5-min Rain = 0
KLO1 111026Z 02021G28KT 14/03 A2998 RMK A01 T01420026  RH  045%=      5-min Rain = 0
KLO1 111027Z 02019KT 14/02 A2998 RMK A01 T01420024  RH  045%=      5-min Rain = 0
KLO1 111028Z 02021KT 14/02 A2998 RMK A01 T01420023  RH  045%=      5-min Rain = 0
KLO1 111029Z 02022G27KT 14/02 A2998 RMK A01 T01420021  RH  044%=      5-min Rain = 0
KLO1 111030Z 02020KT 14/02 A2998 RMK A01 T01410020  RH  044%=      5-min Rain = 0
KLO1 111031Z 02020G27KT 14/02 A2999 RMK A01 T01410019  RH  044%=      5-min Rain = 0
KLO1 111032Z 02020G25KT 14/02 A2999 RMK A01 T01410018  RH  043%=      5-min Rain = 0
KLO1 111033Z 02019KT 14/02 A2999 RMK A01 T01410016  RH  043%=      5-min Rain = 0
KLO1 111034Z 02023G32KT 14/02 A2999 RMK A01 T01400015  RH  043%=      5-min Rain = 0
KLO1 111035Z 02023G30KT 14/01 A2999 RMK A01 T01400014  RH  042%=      5-min Rain = 0
KLO1 111036Z 03019KT 14/01 A2999 RMK A01 T01400012  RH  042%=      5-min Rain = 0
KLO1 111037Z 02017G22KT 14/01 A2999 RMK A01 T01400012  RH  042%=      5-min Rain = 0
KLO1 111038Z 02021G26KT 14/01 A2999 RMK A01 T01390011  RH  042%=      5-min Rain = 0
KLO1 111039Z 02016KT 14/01 A2999 RMK A01 T01390009  RH  041%=      5-min Rain = 0
KLO1 111040Z 02018G24KT 14/01 A2999 RMK A01 T01380007  RH  041%=      5-min Rain = 0
KLO1 111041Z 02019KT 14/01 A2999 RMK A01 T01370005  RH  040%=      5-min Rain = 0
KLO1 111042Z 02019G24KT 14/00 A2999 RMK A01 T01370004  RH  040%=      5-min Rain = 0
KLO1 111043Z 01020G25KT 14/00 A2999 RMK A01 T01370002  RH  040%=      5-min Rain = 0
KLO1 111044Z 02018KT 14/00 A2999 RMK A01 T01370001  RH  039%=      5-min Rain = 0
KLO1 111045Z 02020G29KT 14/00 A2999 RMK A01 T01360000  RH  039%=      5-min Rain = 0
KLO1 111046Z 02027G36KT 14/M00 A30 RMK A01 T01361002  RH  039%=      5-min Rain = 0
KLO1 111047Z 02027G34KT 14/M00 A30 RMK A01 T01371004  RH  038%=      5-min Rain = 0
KLO1 111048Z 02022G28KT 14/M01 A30 RMK A01 T01371005  RH  038%=      5-min Rain = 0
KLO1 111049Z 01017KT 14/M01 A30 RMK A01 T01371005  RH  038%=      5-min Rain = 0
KLO1 111050Z 02019G24KT 14/M01 A30 RMK A01 T01361006  RH  038%=      5-min Rain = 0
KLO1 111051Z 02022KT 14/M01 A30 RMK A01 T01361006  RH  038%=      5-min Rain = 0
KLO1 111052Z 02019KT 14/M01 A30 RMK A01 T01351007  RH  037%=      5-min Rain = 0
KLO1 111053Z 02020KT 14/M01 A30 RMK A01 T01351008  RH  037%=      5-min Rain = 0
KLO1 111054Z 03023KT 14/M01 A30 RMK A01 T01351008  RH  037%=      5-min Rain = 0
KLO1 111055Z 03022KT 14/M01 A30 RMK A01 T01351009  RH  037%=      5-min Rain = 0
KLO1 111056Z 02023KT 14/M01 A30 RMK A01 T01351010  RH  037%=      5-min Rain = 0
KLO1 111057Z 03026KT 14/M01 A30 RMK A01 T01351011  RH  036%=      5-min Rain = 0
KLO1 111058Z 03028G33KT 14/M01 A30 RMK A01 T01351013  RH  036%=      5-min Rain = 0
KLO1 111059Z 03028G34KT 14/M01 A30 RMK A01 T01351014  RH  036%=      5-min Rain = 0
KLO1 111100Z 03022KT 14/M02 A30 RMK A01 T01351015  RH  035%=      5-min Rain = 0
KLO1 111101Z 02023KT 13/M02 A30 RMK A01 T01341016  RH  035%=      5-min Rain = 0
KLO1 111102Z 03027KT 13/M02 A30 RMK A01 T01341017  RH  035%=      5-min Rain = 0
KLO1 111103Z 03022KT 13/M02 A30 RMK A01 T01341017  RH  035%=      5-min Rain = 0
KLO1 111104Z 03020KT 13/M02 A30 RMK A01 T01331017  RH  035%=      5-min Rain = 0
KLO1 111105Z 03022G27KT 13/M02 A3001 RMK A01 T01331017  RH  035%=      5-min Rain = 0
KLO1 111106Z 03021KT 13/M02 A3001 RMK A01 T01331017  RH  035%=      5-min Rain = 0
KLO1 111107Z 02023G29KT 13/M02 A3001 RMK A01 T01331019  RH  035%=      5-min Rain = 0
KLO1 111108Z 03026G33KT 13/M02 A3001 RMK A01 T01331019  RH  035%=      5-min Rain = 0
KLO1 111109Z 03027G32KT 13/M02 A3001 RMK A01 T01331020  RH  035%=      5-min Rain = 0
KLO1 111110Z 03025G31KT 13/M02 A3001 RMK A01 T01331020  RH  034%=      5-min Rain = 0
KLO1 111111Z 03027KT 13/M02 A3002 RMK A01 T01331020  RH  034%=      5-min Rain = 0
KLO1 111112Z 03028G34KT 13/M02 A3002 RMK A01 T01331020  RH  035%=      5-min Rain = 0
KLO1 111113Z 03020KT 13/M02 A3002 RMK A01 T01331020  RH  034%=      5-min Rain = 0
KLO1 111114Z 03018KT 13/M02 A3002 RMK A01 T01321021  RH  035%=      5-min Rain = 0
KLO1 111115Z 03022KT 13/M02 A3002 RMK A01 T01321021  RH  035%=      5-min Rain = 0
KLO1 111116Z 03019KT 13/M02 A3002 RMK A01 T01321021  RH  035%=      5-min Rain = 0
KLO1 111117Z 03019KT 13/M02 A3002 RMK A01 T01311020  RH  035%=      5-min Rain = 0
KLO1 111118Z 03017KT 13/M02 A3002 RMK A01 T01311020  RH  035%=      5-min Rain = 0
KLO1 111119Z 03020KT 13/M02 A3002 RMK A01 T01301020  RH  035%=      5-min Rain = 0
KLO1 111120Z 02019KT 13/M02 A3002 RMK A01 T01301021  RH  035%=      5-min Rain = 0
KLO1 111121Z 03023G28KT 13/M02 A3003 RMK A01 T01311022  RH  035%=      5-min Rain = 0
KLO1 111122Z 03023KT 13/M02 A3002 RMK A01 T01301022  RH  035%=      5-min Rain = 0
KLO1 111123Z 03023G28KT 13/M02 A3003 RMK A01 T01301022  RH  035%=      5-min Rain = 0
KLO1 111124Z 03021KT 13/M02 A3003 RMK A01 T01311022  RH  035%=      5-min Rain = 0
KLO1 111125Z 03021KT 13/M02 A3003 RMK A01 T01311022  RH  035%=      5-min Rain = 0
KLO1 111126Z 02019KT 13/M02 A3003 RMK A01 T01311022  RH  035%=      5-min Rain = 0
KLO1 111127Z 03020KT 13/M02 A3003 RMK A01 T01301022  RH  035%=      5-min Rain = 0
KLO1 111128Z 03016KT 13/M02 A3003 RMK A01 T01301022  RH  035%=      5-min Rain = 0
KLO1 111129Z 03019KT 13/M02 A3003 RMK A01 T01291022  RH  035%=      5-min Rain = 0
KLO1 111130Z 03023KT 13/M02 A3003 RMK A01 T01291022  RH  035%=      5-min Rain = 0
KLO1 111131Z 03020KT 13/M02 A3003 RMK A01 T01291023  RH  035%=      5-min Rain = 0
KLO1 111132Z 02018KT 13/M02 A3003 RMK A01 T01291023  RH  035%=      5-min Rain = 0
KLO1 111133Z 03018KT 13/M02 A3003 RMK A01 T01291023  RH  035%=      5-min Rain = 0
KLO1 111134Z 03019KT 13/M02 A3003 RMK A01 T01291023  RH  035%=      5-min Rain = 0
KLO1 111135Z 03021KT 13/M02 A3003 RMK A01 T01291023  RH  035%=      5-min Rain = 0
KLO1 111136Z 03019KT 13/M02 A3003 RMK A01 T01291023  RH  035%=      5-min Rain = 0
KLO1 111137Z 03019G25KT 13/M02 A3003 RMK A01 T01291023  RH  035%=      5-min Rain = 0
KLO1 111138Z 03023G28KT 13/M02 A3003 RMK A01 T01291023  RH  035%=      5-min Rain = 0
KLO1 111139Z 03024G29KT 13/M02 A3003 RMK A01 T01291023  RH  035%=      5-min Rain = 0
KLO1 111140Z 03020G25KT 13/M02 A3003 RMK A01 T01291023  RH  035%=      5-min Rain = 0
KLO1 111141Z 03023KT 13/M02 A3003 RMK A01 T01301023  RH  035%=      5-min Rain = 0
KLO1 111142Z 02020KT 13/M02 A3003 RMK A01 T01301023  RH  035%=      5-min Rain = 0
KLO1 111143Z 03018KT 13/M02 A3004 RMK A01 T01291023  RH  035%=      5-min Rain = 0
KLO1 111144Z 03022KT 13/M02 A3004 RMK A01 T01281023  RH  035%=      5-min Rain = 0
KLO1 111145Z 03024G29KT 13/M02 A3004 RMK A01 T01281024  RH  035%=      5-min Rain = 0
KLO1 111146Z 03023G30KT 13/M02 A3004 RMK A01 T01291023  RH  035%=      5-min Rain = 0
KLO1 111147Z 03024G29KT 13/M02 A3004 RMK A01 T01291023  RH  035%=      5-min Rain = 0
KLO1 111148Z 03024KT 13/M02 A3005 RMK A01 T01291023  RH  035%=      5-min Rain = 0
KLO1 111149Z 03026KT 13/M02 A3005 RMK A01 T01291023  RH  035%=      5-min Rain = 0
KLO1 111150Z 03021KT 13/M02 A3005 RMK A01 T01301023  RH  035%=      5-min Rain = 0
KLO1 111151Z 03022KT 13/M02 A3005 RMK A01 T01291023  RH  035%=      5-min Rain = 0
KLO1 111152Z 03019KT 13/M02 A3005 RMK A01 T01291023  RH  035%=      5-min Rain = 0
KLO1 111153Z 03019KT 13/M02 A3005 RMK A01 T01281023  RH  035%=      5-min Rain = 0
KLO1 111154Z 03019KT 13/M02 A3005 RMK A01 T01291023  RH  035%=      5-min Rain = 0
KLO1 111155Z 03018KT 13/M02 A3005 RMK A01 T01281023  RH  035%=      5-min Rain = 0
KLO1 111156Z 03021KT 13/M02 A3005 RMK A01 T01281023  RH  035%=      5-min Rain = 0
KLO1 111157Z 04019G24KT 13/M02 A3005 RMK A01 T01281023  RH  035%=      5-min Rain = 0
KLO1 111158Z 04020G25KT 13/M02 A3005 RMK A01 T01281024  RH  035%=      5-min Rain = 0
KLO1 111159Z 03023KT 13/M02 A3005 RMK A01 T01291023  RH  035%=      5-min Rain = 0
KLO1 111200Z 03022G28KT 13/M02 A3005 RMK A01 T01291023  RH  035%=      5-min Rain = 0
KLO1 111201Z 02025G30KT 13/M02 A3005 RMK A01 T01291023  RH  035%=      5-min Rain = 0
KLO1 111202Z 03021KT 13/M02 A3005 RMK A01 T01291023  RH  035%=      5-min Rain = 0
KLO1 111203Z 03019G24KT 13/M02 A3006 RMK A01 T01291023  RH  035%=      5-min Rain = 0
KLO1 111204Z 03022KT 13/M02 A3006 RMK A01 T01291023  RH  035%=      5-min Rain = 0
KLO1 111205Z 03022KT 13/M02 A3006 RMK A01 T01281023  RH  035%=      5-min Rain = 0
KLO1 111206Z 03020KT 13/M02 A3006 RMK A01 T01281023  RH  035%=      5-min Rain = 0
KLO1 111207Z 03019KT 13/M02 A3006 RMK A01 T01281023  RH  035%=      5-min Rain = 0
KLO1 111208Z 03020G26KT 13/M02 A3006 RMK A01 T01281023  RH  035%=      5-min Rain = 0
KLO1 111209Z 03023KT 13/M02 A3006 RMK A01 T01281023  RH  035%=      5-min Rain = 0
KLO1 111210Z 03023G28KT 13/M02 A3006 RMK A01 T01281023  RH  035%=      5-min Rain = 0
KLO1 111211Z 03025KT 13/M02 A3006 RMK A01 T01281023  RH  035%=      5-min Rain = 0
KLO1 111212Z 04023KT 13/M02 A3006 RMK A01 T01281023  RH  035%=      5-min Rain = 0
KLO1 111213Z 03028G33KT 13/M02 A3007 RMK A01 T01281023  RH  035%=      5-min Rain = 0
KLO1 111214Z 03025G30KT 13/M02 A3007 RMK A01 T01291023  RH  035%=      5-min Rain = 0
KLO1 111215Z 04024KT 13/M02 A3007 RMK A01 T01291023  RH  035%=      5-min Rain = 0
KLO1 111216Z 04022G27KT 13/M02 A3007 RMK A01 T01291023  RH  035%=      5-min Rain = 0
KLO1 111217Z 04022KT 13/M02 A3007 RMK A01 T01291023  RH  035%=      5-min Rain = 0
KLO1 111218Z 04022KT 13/M02 A3007 RMK A01 T01281023  RH  035%=      5-min Rain = 0
KLO1 111219Z 04026KT 13/M02 A3007 RMK A01 T01281023  RH  035%=      5-min Rain = 0
KLO1 111220Z 04027KT 13/M02 A3007 RMK A01 T01281023  RH  035%=      5-min Rain = 0
KLO1 111221Z 05028G33KT 13/M02 A3007 RMK A01 T01291023  RH  035%=      5-min Rain = 0
KLO1 111222Z 04022KT 13/M02 A3007 RMK A01 T01291023  RH  035%=      5-min Rain = 0
KLO1 111223Z 04025G30KT 13/M02 A3007 RMK A01 T01291023  RH  035%=      5-min Rain = 0
KLO1 111224Z 04023KT 13/M02 A3007 RMK A01 T01291023  RH  035%=      5-min Rain = 0
KLO1 111225Z 04025KT 13/M02 A3007 RMK A01 T01281023  RH  035%=      5-min Rain = 0
KLO1 111226Z 05025G31KT 13/M02 A3007 RMK A01 T01281023  RH  035%=      5-min Rain = 0
KLO1 111227Z 04026KT 13/M02 A3007 RMK A01 T01281023  RH  035%=      5-min Rain = 0
KLO1 111228Z 05024G31KT 13/M02 A3007 RMK A01 T01291024  RH  035%=      5-min Rain = 0
KLO1 111229Z 05023G28KT 13/M02 A3007 RMK A01 T01291023  RH  035%=      5-min Rain = 0
KLO1 111230Z 04022G27KT 13/M02 A3007 RMK A01 T01291023  RH  035%=      5-min Rain = 0
KLO1 111231Z 04024KT 13/M02 A3007 RMK A01 T01291023  RH  035%=      5-min Rain = 0
KLO1 111232Z 04022G27KT 13/M02 A3007 RMK A01 T01291023  RH  035%=      5-min Rain = 0
KLO1 111233Z 04021KT 13/M02 A3008 RMK A01 T01291023  RH  035%=      5-min Rain = 0
KLO1 111234Z 04021KT 13/M02 A3008 RMK A01 T01281023  RH  035%=      5-min Rain = 0
KLO1 111235Z 04018KT 13/M02 A3008 RMK A01 T01281023  RH  035%=      5-min Rain = 0
KLO1 111236Z 04020G27KT 13/M02 A3008 RMK A01 T01281023  RH  035%=      5-min Rain = 0
KLO1 111237Z 04021KT 13/M02 A3008 RMK A01 T01281024  RH  035%=      5-min Rain = 0
KLO1 111238Z 04021G26KT 13/M02 A3009 RMK A01 T01281024  RH  035%=      5-min Rain = 0
KLO1 111239Z 04018KT 13/M02 A3008 RMK A01 T01281024  RH  035%=      5-min Rain = 0
KLO1 111240Z 03013KT 13/M02 A3009 RMK A01 T01281024  RH  035%=      5-min Rain = 0
KLO1 111241Z 03014G20KT 13/M02 A3009 RMK A01 T01271023  RH  035%=      5-min Rain = 0
KLO1 111242Z 04017KT 13/M02 A3009 RMK A01 T01271024  RH  035%=      5-min Rain = 0
KLO1 111243Z 03018G23KT 13/M02 A3009 RMK A01 T01271024  RH  035%=      5-min Rain = 0
KLO1 111244Z 03019KT 13/M03 A3009 RMK A01 T01271025  RH  035%=      5-min Rain = 0
KLO1 111245Z 03020KT 13/M03 A3009 RMK A01 T01271025  RH  035%=      5-min Rain = 0
KLO1 111246Z 04016KT 13/M03 A3009 RMK A01 T01271025  RH  034%=      5-min Rain = 0
KLO1 111247Z 04018KT 13/M03 A3009 RMK A01 T01271026  RH  034%=      5-min Rain = 0
KLO1 111248Z 03021KT 13/M03 A3009 RMK A01 T01271026  RH  034%=      5-min Rain = 0
KLO1 111249Z 03018KT 13/M03 A3009 RMK A01 T01281026  RH  034%=      5-min Rain = 0
KLO1 111250Z 04022KT 13/M03 A301 RMK A01 T01281026  RH  034%=      5-min Rain = 0
KLO1 111251Z 03025KT 13/M03 A301 RMK A01 T01281027  RH  034%=      5-min Rain = 0
KLO1 111252Z 03022G27KT 13/M03 A301 RMK A01 T01281028  RH  034%=      5-min Rain = 0
KLO1 111253Z 03021KT 13/M03 A301 RMK A01 T01281028  RH  034%=      5-min Rain = 0
KLO1 111254Z 03020KT 13/M03 A301 RMK A01 T01281028  RH  034%=      5-min Rain = 0
KLO1 111255Z 03019KT 13/M03 A301 RMK A01 T01281028  RH  034%=      5-min Rain = 0
KLO1 111256Z 04020KT 13/M03 A301 RMK A01 T01271029  RH  034%=      5-min Rain = 0
KLO1 111257Z 03018G23KT 13/M03 A301 RMK A01 T01271029  RH  034%=      5-min Rain = 0
KLO1 111258Z 03019KT 13/M03 A301 RMK A01 T01271029  RH  034%=      5-min Rain = 0
KLO1 111259Z 03017KT 13/M03 A301 RMK A01 T01271029  RH  034%=      5-min Rain = 0
KLO1 111300Z 03016KT 13/M03 A301 RMK A01 T01271029  RH  034%=      5-min Rain = 0
KLO1 111301Z 03016KT 13/M03 A3011 RMK A01 T01261029  RH  034%=      5-min Rain = 0
KLO1 111302Z 03018KT 13/M03 A3011 RMK A01 T01261029  RH  034%=      5-min Rain = 0
KLO1 111303Z 03014KT 13/M03 A3011 RMK A01 T01261029  RH  034%=      5-min Rain = 0
KLO1 111304Z 03016G21KT 13/M03 A3011 RMK A01 T01261030  RH  034%=      5-min Rain = 0
KLO1 111305Z 03021G26KT 13/M03 A3011 RMK A01 T01261030  RH  034%=      5-min Rain = 0
KLO1 111306Z 03021KT 13/M03 A3011 RMK A01 T01261031  RH  033%=      5-min Rain = 0
KLO1 111307Z 03019G24KT 13/M03 A3012 RMK A01 T01261031  RH  033%=      5-min Rain = 0
KLO1 111308Z 03017G24KT 13/M03 A3012 RMK A01 T01261032  RH  033%=      5-min Rain = 0
KLO1 111309Z 03020KT 13/M03 A3012 RMK A01 T01261032  RH  033%=      5-min Rain = 0
KLO1 111310Z 03018G24KT 13/M03 A3012 RMK A01 T01271032  RH  033%=      5-min Rain = 0
KLO1 111311Z 03019KT 13/M03 A3012 RMK A01 T01261033  RH  033%=      5-min Rain = 0
KLO1 111312Z 04020G25KT 13/M03 A3012 RMK A01 T01261034  RH  033%=      5-min Rain = 0
KLO1 111313Z 03019KT 13/M03 A3012 RMK A01 T01271034  RH  033%=      5-min Rain = 0
KLO1 111314Z 03018KT 13/M03 A3012 RMK A01 T01261034  RH  033%=      5-min Rain = 0
KLO1 111315Z 03017KT 13/M03 A3012 RMK A01 T01261034  RH  033%=      5-min Rain = 0
KLO1 111316Z 03020KT 13/M03 A3013 RMK A01 T01271034  RH  033%=      5-min Rain = 0
KLO1 111317Z 03020KT 13/M03 A3013 RMK A01 T01261034  RH  032%=      5-min Rain = 0
KLO1 111318Z 04019KT 13/M04 A3013 RMK A01 T01261035  RH  032%=      5-min Rain = 0
KLO1 111319Z 03015KT 13/M03 A3013 RMK A01 T01261034  RH  032%=      5-min Rain = 0
KLO1 111320Z 03014KT 13/M03 A3013 RMK A01 T01261034  RH  033%=      5-min Rain = 0
KLO1 111321Z 03017KT 13/M03 A3013 RMK A01 T01261034  RH  033%=      5-min Rain = 0
KLO1 111322Z 03016KT 13/M03 A3013 RMK A01 T01261034  RH  033%=      5-min Rain = 0
KLO1 111323Z 03015G20KT 13/M04 A3013 RMK A01 T01261035  RH  033%=      5-min Rain = 0
KLO1 111324Z 03016KT 13/M04 A3013 RMK A01 T01261035  RH  033%=      5-min Rain = 0
KLO1 111325Z 03014KT 13/M03 A3013 RMK A01 T01261034  RH  033%=      5-min Rain = 0
KLO1 111326Z 03017G22KT 13/M04 A3013 RMK A01 T01261035  RH  032%=      5-min Rain = 0
KLO1 111327Z 02019KT 13/M04 A3013 RMK A01 T01251036  RH  032%=      5-min Rain = 0
KLO1 111328Z 02021KT 13/M04 A3014 RMK A01 T01261036  RH  032%=      5-min Rain = 0
KLO1 111329Z 03022G27KT 13/M04 A3014 RMK A01 T01261037  RH  032%=      5-min Rain = 0
KLO1 111330Z 03017KT 13/M04 A3014 RMK A01 T01261037  RH  032%=      5-min Rain = 0
KLO1 111331Z 03018G23KT 13/M04 A3014 RMK A01 T01261037  RH  032%=      5-min Rain = 0
KLO1 111332Z 03018KT 13/M04 A3014 RMK A01 T01261037  RH  032%=      5-min Rain = 0
KLO1 111333Z 03021KT 13/M04 A3014 RMK A01 T01261037  RH  032%=      5-min Rain = 0
KLO1 111334Z 03021KT 13/M04 A3014 RMK A01 T01261038  RH  032%=      5-min Rain = 0
KLO1 111335Z 03023G28KT 13/M04 A3014 RMK A01 T01261038  RH  032%=      5-min Rain = 0
KLO1 111336Z 03023KT 13/M04 A3014 RMK A01 T01261038  RH  032%=      5-min Rain = 0
KLO1 111337Z 03020G25KT 13/M04 A3014 RMK A01 T01261038  RH  032%=      5-min Rain = 0
KLO1 111338Z 03017KT 13/M04 A3014 RMK A01 T01261037  RH  032%=      5-min Rain = 0
KLO1 111339Z 03020KT 13/M04 A3014 RMK A01 T01261037  RH  032%=      5-min Rain = 0
KLO1 111340Z 03021KT 13/M04 A3015 RMK A01 T01261037  RH  032%=      5-min Rain = 0
KLO1 111341Z 03023KT 13/M04 A3015 RMK A01 T01261037  RH  032%=      5-min Rain = 0
KLO1 111342Z 03021G26KT 13/M04 A3015 RMK A01 T01261037  RH  032%=      5-min Rain = 0
KLO1 111343Z 03020KT 13/M04 A3015 RMK A01 T01261036  RH  032%=      5-min Rain = 0
KLO1 111344Z 03021G26KT 13/M04 A3015 RMK A01 T01261036  RH  032%=      5-min Rain = 0
KLO1 111345Z 03018G23KT 13/M04 A3015 RMK A01 T01261036  RH  032%=      5-min Rain = 0
KLO1 111346Z 03019KT 13/M04 A3015 RMK A01 T01261036  RH  032%=      5-min Rain = 0
KLO1 111347Z 03016G21KT 13/M04 A3015 RMK A01 T01251036  RH  032%=      5-min Rain = 0
KLO1 111348Z 03015KT 13/M04 A3015 RMK A01 T01251035  RH  032%=      5-min Rain = 0
KLO1 111349Z 03012KT 13/M04 A3015 RMK A01 T01261035  RH  033%=      5-min Rain = 0
KLO1 111350Z 03013KT 13/M04 A3016 RMK A01 T01251035  RH  033%=      5-min Rain = 0
KLO1 111351Z 03013KT 13/M04 A3016 RMK A01 T01251035  RH  033%=      5-min Rain = 0
KLO1 111352Z 03014KT 13/M04 A3016 RMK A01 T01251035  RH  033%=      5-min Rain = 0
KLO1 111353Z 02014KT 13/M04 A3016 RMK A01 T01251035  RH  033%=      5-min Rain = 0
KLO1 111354Z 01017G22KT 13/M04 A3016 RMK A01 T01261035  RH  033%=      5-min Rain = 0
KLO1 111355Z 03020KT 13/M04 A3016 RMK A01 T01261035  RH  032%=      5-min Rain = 0
KLO1 111356Z 03015KT 13/M04 A3016 RMK A01 T01251036  RH  032%=      5-min Rain = 0
KLO1 111357Z 03014KT 13/M04 A3016 RMK A01 T01261035  RH  033%=      5-min Rain = 0
KLO1 111358Z 02016KT 13/M04 A3016 RMK A01 T01251035  RH  033%=      5-min Rain = 0
KLO1 111359Z 03016KT 13/M04 A3016 RMK A01 T01251035  RH  033%=      5-min Rain = 0
KLO1 111400Z 03014KT 13/M04 A3016 RMK A01 T01251035  RH  033%=      5-min Rain = 0
KLO1 111401Z 03016KT 13/M03 A3016 RMK A01 T01251034  RH  033%=      5-min Rain = 0
KLO1 111402Z 03016KT 13/M03 A3017 RMK A01 T01251034  RH  033%=      5-min Rain = 0
KLO1 111403Z 03019KT 13/M03 A3017 RMK A01 T01261034  RH  033%=      5-min Rain = 0
KLO1 111404Z 03019KT 13/M03 A3017 RMK A01 T01251034  RH  033%=      5-min Rain = 0
KLO1 111405Z 03018KT 13/M03 A3017 RMK A01 T01251034  RH  033%=      5-min Rain = 0
KLO1 111406Z 03019KT 13/M03 A3017 RMK A01 T01251034  RH  033%=      5-min Rain = 0
KLO1 111407Z 03020KT 13/M03 A3017 RMK A01 T01251034  RH  033%=      5-min Rain = 0
KLO1 111408Z 03020KT 13/M03 A3017 RMK A01 T01251034  RH  033%=      5-min Rain = 0
KLO1 111409Z 03017KT 13/M03 A3017 RMK A01 T01251034  RH  033%=      5-min Rain = 0
KLO1 111410Z 03016KT 13/M03 A3017 RMK A01 T01251034  RH  033%=      5-min Rain = 0
KLO1 111411Z 03016KT 13/M03 A3017 RMK A01 T01251033  RH  033%=      5-min Rain = 0
KLO1 111412Z 03016KT 13/M03 A3017 RMK A01 T01251033  RH  033%=      5-min Rain = 0
KLO1 111413Z 03015KT 13/M03 A3017 RMK A01 T01251033  RH  033%=      5-min Rain = 0
KLO1 111414Z 03013KT 13/M03 A3017 RMK A01 T01251033  RH  033%=      5-min Rain = 0
KLO1 111415Z 03015KT 13/M03 A3017 RMK A01 T01251033  RH  033%=      5-min Rain = 0
KLO1 111416Z 01014KT 13/M03 A3017 RMK A01 T01251033  RH  033%=      5-min Rain = 0
KLO1 111417Z 02017KT 13/M03 A3017 RMK A01 T01251033  RH  033%=      5-min Rain = 0
KLO1 111418Z 02016KT 13/M03 A3017 RMK A01 T01251033  RH  033%=      5-min Rain = 0
KLO1 111419Z 02015KT 13/M03 A3017 RMK A01 T01251032  RH  033%=      5-min Rain = 0
KLO1 111420Z 02016KT 13/M03 A3017 RMK A01 T01251032  RH  033%=      5-min Rain = 0
KLO1 111421Z 02015KT 13/M03 A3018 RMK A01 T01251032  RH  033%=      5-min Rain = 0
KLO1 111422Z 03016KT 13/M03 A3018 RMK A01 T01251032  RH  033%=      5-min Rain = 0
KLO1 111423Z 02017KT 13/M03 A3018 RMK A01 T01251032  RH  033%=      5-min Rain = 0
KLO1 111424Z 02017KT 13/M03 A3018 RMK A01 T01251032  RH  033%=      5-min Rain = 0
KLO1 111425Z 03017KT 13/M03 A3018 RMK A01 T01251032  RH  033%=      5-min Rain = 0
KLO1 111426Z 03019KT 13/M03 A3018 RMK A01 T01251032  RH  033%=      5-min Rain = 0
KLO1 111427Z 03021KT 12/M03 A3018 RMK A01 T01241033  RH  033%=      5-min Rain = 0
KLO1 111428Z 03020KT 12/M03 A3018 RMK A01 T01241033  RH  033%=      5-min Rain = 0
KLO1 111429Z 02019G24KT 12/M03 A3018 RMK A01 T01241033  RH  033%=      5-min Rain = 0
KLO1 111430Z 03019KT 12/M03 A3018 RMK A01 T01241033  RH  033%=      5-min Rain = 0
KLO1 111431Z 03018KT 12/M03 A3019 RMK A01 T01241033  RH  033%=      5-min Rain = 0
KLO1 111432Z 03018KT 12/M03 A3019 RMK A01 T01241032  RH  033%=      5-min Rain = 0
KLO1 111433Z 02019KT 12/M03 A3019 RMK A01 T01241033  RH  033%=      5-min Rain = 0
KLO1 111434Z 02018KT 12/M03 A3019 RMK A01 T01241033  RH  033%=      5-min Rain = 0
KLO1 111435Z 02018G23KT 12/M03 A3019 RMK A01 T01241033  RH  033%=      5-min Rain = 0
KLO1 111436Z 01020G25KT 12/M03 A3019 RMK A01 T01241033  RH  033%=      5-min Rain = 0
KLO1 111437Z 02020KT 12/M04 A3019 RMK A01 T01241035  RH  033%=      5-min Rain = 0
KLO1 111438Z 02021KT 12/M04 A3019 RMK A01 T01241036  RH  033%=      5-min Rain = 0
KLO1 111439Z 02021KT 12/M04 A3019 RMK A01 T01241037  RH  032%=      5-min Rain = 0
KLO1 111440Z 02022KT 12/M04 A3019 RMK A01 T01241037  RH  032%=      5-min Rain = 0
KLO1 111441Z 02021KT 12/M04 A3019 RMK A01 T01231037  RH  032%=      5-min Rain = 0
KLO1 111442Z 02023KT 12/M04 A3019 RMK A01 T01231037  RH  032%=      5-min Rain = 0
KLO1 111443Z 02021KT 12/M04 A3019 RMK A01 T01231038  RH  032%=      5-min Rain = 0
KLO1 111444Z 03018KT 12/M04 A3019 RMK A01 T01241037  RH  032%=      5-min Rain = 0
KLO1 111445Z 03019KT 12/M04 A3019 RMK A01 T01241037  RH  032%=      5-min Rain = 0
KLO1 111446Z 02021KT 12/M04 A3019 RMK A01 T01241038  RH  032%=      5-min Rain = 0
KLO1 111447Z 03021G26KT 12/M04 A3019 RMK A01 T01241038  RH  032%=      5-min Rain = 0
KLO1 111448Z 03023KT 12/M04 A3019 RMK A01 T01241038  RH  032%=      5-min Rain = 0
KLO1 111449Z 03023KT 12/M04 A3019 RMK A01 T01241038  RH  032%=      5-min Rain = 0
KLO1 111450Z 03021KT 12/M04 A3019 RMK A01 T01241038  RH  032%=      5-min Rain = 0
KLO1 111451Z 03017KT 12/M04 A3019 RMK A01 T01241037  RH  032%=      5-min Rain = 0
KLO1 111452Z 03017KT 13/M04 A3019 RMK A01 T01251037  RH  032%=      5-min Rain = 0
KLO1 111453Z 03019KT 13/M04 A3019 RMK A01 T01251036  RH  032%=      5-min Rain = 0
KLO1 111454Z 03020KT 13/M04 A3019 RMK A01 T01261036  RH  032%=      5-min Rain = 0
KLO1 111455Z 02020KT 13/M04 A3019 RMK A01 T01261036  RH  032%=      5-min Rain = 0
KLO1 111456Z 03019KT 13/M04 A3019 RMK A01 T01251036  RH  032%=      5-min Rain = 0
KLO1 111457Z 03019KT 13/M04 A3019 RMK A01 T01251036  RH  032%=      5-min Rain = 0
KLO1 111458Z 03018KT 13/M04 A3019 RMK A01 T01261036  RH  032%=      5-min Rain = 0
KLO1 111459Z 03017KT 13/M04 A3019 RMK A01 T01271035  RH  032%=      5-min Rain = 0
KLO1 111500Z 02018G23KT 13/M04 A3019 RMK A01 T01281036  RH  032%=      5-min Rain = 0
KLO1 111501Z 02023KT 13/M04 A302 RMK A01 T01271037  RH  032%=      5-min Rain = 0
KLO1 111502Z 02019KT 13/M04 A302 RMK A01 T01261039  RH  032%=      5-min Rain = 0
KLO1 111503Z 02019KT 13/M04 A302 RMK A01 T01251038  RH  032%=      5-min Rain = 0
KLO1 111504Z 02019G24KT 13/M04 A302 RMK A01 T01251039  RH  032%=      5-min Rain = 0
KLO1 111505Z 02017KT 13/M04 A302 RMK A01 T01251039  RH  032%=      5-min Rain = 0
KLO1 111506Z 02020KT 13/M04 A302 RMK A01 T01251038  RH  032%=      5-min Rain = 0
KLO1 111507Z 03019KT 13/M04 A302 RMK A01 T01261038  RH  032%=      5-min Rain = 0
KLO1 111508Z 02021G26KT 13/M04 A302 RMK A01 T01261039  RH  031%=      5-min Rain = 0
KLO1 111509Z 01020G25KT 13/M04 A302 RMK A01 T01261040  RH  031%=      5-min Rain = 0
KLO1 111510Z 02021G26KT 13/M04 A302 RMK A01 T01251041  RH  031%=      5-min Rain = 0
KLO1 111511Z 02020KT 13/M04 A302 RMK A01 T01251042  RH  031%=      5-min Rain = 0
KLO1 111512Z 03023KT 13/M04 A3021 RMK A01 T01251042  RH  031%=      5-min Rain = 0
KLO1 111513Z 03023G29KT 13/M04 A3021 RMK A01 T01251044  RH  030%=      5-min Rain = 0
KLO1 111514Z 03021KT 13/M05 A3021 RMK A01 T01251045  RH  030%=      5-min Rain = 0
KLO1 111515Z 02021KT 13/M05 A3021 RMK A01 T01251045  RH  030%=      5-min Rain = 0
KLO1 111516Z 03021KT 13/M05 A3021 RMK A01 T01251045  RH  030%=      5-min Rain = 0
KLO1 111517Z 03022G27KT 13/M05 A3021 RMK A01 T01261045  RH  030%=      5-min Rain = 0
KLO1 111518Z 04023KT 13/M05 A3021 RMK A01 T01251045  RH  030%=      5-min Rain = 0
KLO1 111519Z 02021KT 13/M05 A3021 RMK A01 T01251045  RH  030%=      5-min Rain = 0
KLO1 111520Z 04020KT 13/M05 A3021 RMK A01 T01251045  RH  030%=      5-min Rain = 0
KLO1 111521Z 04020KT 13/M05 A3021 RMK A01 T01251047  RH  030%=      5-min Rain = 0
KLO1 111522Z 04020G25KT 13/M05 A3021 RMK A01 T01251045  RH  030%=      5-min Rain = 0
KLO1 111523Z 03019KT 13/M04 A3021 RMK A01 T01261044  RH  030%=      5-min Rain = 0
KLO1 111524Z 03020KT 13/M05 A3021 RMK A01 T01271045  RH  030%=      5-min Rain = 0
KLO1 111525Z 03017KT 13/M05 A3021 RMK A01 T01271046  RH  030%=      5-min Rain = 0
KLO1 111526Z 02020KT 13/M05 A3021 RMK A01 T01281045  RH  030%=      5-min Rain = 0
KLO1 111527Z 02020KT 13/M05 A3021 RMK A01 T01271045  RH  030%=      5-min Rain = 0
KLO1 111528Z 02019KT 13/M04 A3022 RMK A01 T01271044  RH  030%=      5-min Rain = 0
KLO1 111529Z 03019G24KT 13/M04 A3022 RMK A01 T01271043  RH  030%=      5-min Rain = 0
KLO1 111530Z 03018KT 13/M04 A3022 RMK A01 T01271043  RH  030%=      5-min Rain = 0
KLO1 111531Z 02019KT 13/M04 A3022 RMK A01 T01261040  RH  031%=      5-min Rain = 0
KLO1 111532Z 01019KT 13/M04 A3022 RMK A01 T01271039  RH  031%=      5-min Rain = 0
KLO1 111533Z 02021KT 13/M04 A3022 RMK A01 T01261040  RH  031%=      5-min Rain = 0
KLO1 111534Z 02020G25KT 13/M04 A3022 RMK A01 T01261039  RH  031%=      5-min Rain = 0
KLO1 111535Z 02020KT 13/M04 A3022 RMK A01 T01261039  RH  031%=      5-min Rain = 0
KLO1 111536Z 02020KT 13/M04 A3022 RMK A01 T01251040  RH  031%=      5-min Rain = 0
KLO1 111537Z 02021KT 13/M04 A3022 RMK A01 T01251040  RH  031%=      5-min Rain = 0
KLO1 111538Z 02018G23KT 13/M04 A3022 RMK A01 T01251040  RH  031%=      5-min Rain = 0
KLO1 111539Z 02019KT 13/M04 A3022 RMK A01 T01251040  RH  032%=      5-min Rain = 0
KLO1 111540Z 01019KT 13/M04 A3022 RMK A01 T01251040  RH  032%=      5-min Rain = 0
KLO1 111541Z 01019KT 12/M04 A3022 RMK A01 T01241040  RH  032%=      5-min Rain = 0
KLO1 111542Z 01020KT 12/M04 A3022 RMK A01 T01241040  RH  032%=      5-min Rain = 0
KLO1 111543Z 02024KT 12/M04 A3023 RMK A01 T01241041  RH  031%=      5-min Rain = 0
KLO1 111544Z 02021KT 12/M04 A3023 RMK A01 T01241042  RH  031%=      5-min Rain = 0
KLO1 111545Z 02020KT 12/M04 A3023 RMK A01 T01241042  RH  031%=      5-min Rain = 0
KLO1 111546Z 03021KT 12/M04 A3023 RMK A01 T01241044  RH  031%=      5-min Rain = 0
KLO1 111547Z 03021KT 12/M04 A3023 RMK A01 T01231043  RH  031%=      5-min Rain = 0
KLO1 111548Z 03018KT 12/M04 A3023 RMK A01 T01241042  RH  031%=      5-min Rain = 0
KLO1 111549Z 03021G27KT 12/M04 A3023 RMK A01 T01241042  RH  031%=      5-min Rain = 0
KLO1 111550Z 02023KT 12/M05 A3024 RMK A01 T01241045  RH  030%=      5-min Rain = 0
KLO1 111551Z 03022KT 12/M05 A3024 RMK A01 T01231046  RH  030%=      5-min Rain = 0
KLO1 111552Z 02022KT 12/M05 A3024 RMK A01 T01231046  RH  030%=      5-min Rain = 0
KLO1 111553Z 02022KT 12/M05 A3024 RMK A01 T01221046  RH  031%=      5-min Rain = 0
KLO1 111554Z 02017KT 12/M05 A3024 RMK A01 T01221047  RH  031%=      5-min Rain = 0
KLO1 111555Z 02019KT 12/M05 A3024 RMK A01 T01221046  RH  031%=      5-min Rain = 0
KLO1 111556Z 02019KT 12/M05 A3024 RMK A01 T01221046  RH  031%=      5-min Rain = 0
KLO1 111557Z 03019KT 12/M04 A3024 RMK A01 T01221044  RH  031%=      5-min Rain = 0
KLO1 111558Z 03018KT 12/M04 A3024 RMK A01 T01221043  RH  031%=      5-min Rain = 0
KLO1 111559Z 02017KT 12/M04 A3024 RMK A01 T01221042  RH  032%=      5-min Rain = 0
KLO1 111600Z 03015KT 12/M04 A3023 RMK A01 T01221042  RH  032%=      5-min Rain = 0
KLO1 111601Z 02018KT 12/M04 A3023 RMK A01 T01231041  RH  032%=      5-min Rain = 0
KLO1 111602Z 02020KT 12/M04 A3023 RMK A01 T01231040  RH  032%=      5-min Rain = 0
KLO1 111603Z 01018KT 12/M04 A3023 RMK A01 T01221040  RH  032%=      5-min Rain = 0
KLO1 111604Z 01019KT 12/M04 A3023 RMK A01 T01211040  RH  032%=      5-min Rain = 0
KLO1 111605Z 01019KT 12/M04 A3023 RMK A01 T01211039  RH  032%=      5-min Rain = 0
KLO1 111606Z 02017G22KT 12/M04 A3023 RMK A01 T01221039  RH  032%=      5-min Rain = 0
KLO1 111607Z 03020G25KT 12/M04 A3024 RMK A01 T01241038  RH  032%=      5-min Rain = 0
KLO1 111608Z 02020G25KT 12/M04 A3024 RMK A01 T01241040  RH  032%=      5-min Rain = 0
KLO1 111609Z 02018KT 12/M04 A3024 RMK A01 T01241040  RH  032%=      5-min Rain = 0
KLO1 111610Z 02020KT 12/M04 A3024 RMK A01 T01231042  RH  031%=      5-min Rain = 0
KLO1 111611Z 02020KT 12/M04 A3024 RMK A01 T01231043  RH  031%=      5-min Rain = 0
KLO1 111612Z 03020KT 12/M04 A3024 RMK A01 T01221043  RH  031%=      5-min Rain = 0
KLO1 111613Z 02021KT 12/M04 A3025 RMK A01 T01221042  RH  031%=      5-min Rain = 0
KLO1 111614Z 03020KT 12/M04 A3024 RMK A01 T01221043  RH  031%=      5-min Rain = 0
KLO1 111615Z 03019KT 12/M04 A3024 RMK A01 T01221042  RH  031%=      5-min Rain = 0
KLO1 111616Z 02021KT 12/M04 A3025 RMK A01 T01221043  RH  031%=      5-min Rain = 0
KLO1 111617Z 02018KT 12/M04 A3025 RMK A01 T01221044  RH  031%=      5-min Rain = 0
KLO1 111618Z 02016G21KT 12/M04 A3025 RMK A01 T01231044  RH  031%=      5-min Rain = 0
KLO1 111619Z 02020KT 13/M04 A3025 RMK A01 T01251043  RH  031%=      5-min Rain = 0
KLO1 111620Z 02018KT 13/M04 A3025 RMK A01 T01251044  RH  031%=      5-min Rain = 0
KLO1 111621Z 02018KT 13/M04 A3025 RMK A01 T01251044  RH  030%=      5-min Rain = 0
KLO1 111622Z 02019G24KT 13/M04 A3025 RMK A01 T01251044  RH  031%=      5-min Rain = 0
KLO1 111623Z 01017KT 12/M04 A3025 RMK A01 T01241044  RH  031%=      5-min Rain = 0
KLO1 111624Z 02017G22KT 12/M04 A3025 RMK A01 T01231044  RH  031%=      5-min Rain = 0
KLO1 111625Z 03020KT 12/M04 A3025 RMK A01 T01241042  RH  031%=      5-min Rain = 0
KLO1 111626Z 02020KT 12/M04 A3025 RMK A01 T01241043  RH  031%=      5-min Rain = 0
KLO1 111627Z 03018KT 12/M04 A3025 RMK A01 T01231043  RH  031%=      5-min Rain = 0
KLO1 111628Z 04017KT 12/M04 A3025 RMK A01 T01241042  RH  031%=      5-min Rain = 0
KLO1 111629Z 03015KT 13/M04 A3025 RMK A01 T01251040  RH  031%=      5-min Rain = 0
KLO1 111630Z 03014KT 13/M04 A3025 RMK A01 T01261039  RH  031%=      5-min Rain = 0
KLO1 111631Z 03016KT 13/M04 A3025 RMK A01 T01271039  RH  031%=      5-min Rain = 0
KLO1 111632Z 03017KT 13/M04 A3025 RMK A01 T01271040  RH  031%=      5-min Rain = 0
KLO1 111633Z 04015KT 13/M04 A3025 RMK A01 T01261040  RH  031%=      5-min Rain = 0
KLO1 111634Z 04017KT 13/M04 A3025 RMK A01 T01271039  RH  031%=      5-min Rain = 0
KLO1 111635Z 03019KT 13/M04 A3025 RMK A01 T01281041  RH  031%=      5-min Rain = 0
KLO1 111636Z 02020KT 13/M04 A3025 RMK A01 T01271043  RH  030%=      5-min Rain = 0
KLO1 111637Z 02018KT 13/M04 A3025 RMK A01 T01271043  RH  030%=      5-min Rain = 0
KLO1 111638Z 02019KT 13/M04 A3025 RMK A01 T01271043  RH  030%=      5-min Rain = 0
KLO1 111639Z 02022KT 13/M04 A3026 RMK A01 T01281043  RH  030%=      5-min Rain = 0
KLO1 111640Z 02021KT 13/M05 A3026 RMK A01 T01281045  RH  030%=      5-min Rain = 0
KLO1 111641Z 03018G24KT 13/M05 A3025 RMK A01 T01281045  RH  030%=      5-min Rain = 0
KLO1 111642Z 03019KT 13/M04 A3025 RMK A01 T01291044  RH  030%=      5-min Rain = 0
KLO1 111643Z 03016KT 13/M04 A3025 RMK A01 T01301044  RH  029%=      5-min Rain = 0
KLO1 111644Z 04020KT 13/M04 A3025 RMK A01 T01301044  RH  029%=      5-min Rain = 0
KLO1 111645Z 03018KT 13/M04 A3025 RMK A01 T01301044  RH  029%=      5-min Rain = 0
KLO1 111646Z 04019KT 13/M05 A3025 RMK A01 T01311045  RH  029%=      5-min Rain = 0
KLO1 111647Z 03017KT 13/M05 A3025 RMK A01 T01301045  RH  029%=      5-min Rain = 0
KLO1 111648Z 03017KT 13/M05 A3025 RMK A01 T01301045  RH  029%=      5-min Rain = 0
KLO1 111649Z 04018KT 13/M05 A3025 RMK A01 T01301045  RH  029%=      5-min Rain = 0
KLO1 111650Z 04019KT 13/M05 A3026 RMK A01 T01301045  RH  029%=      5-min Rain = 0
KLO1 111651Z 03017KT 13/M05 A3025 RMK A01 T01291045  RH  029%=      5-min Rain = 0
KLO1 111652Z 02017KT 13/M05 A3025 RMK A01 T01301045  RH  029%=      5-min Rain = 0
KLO1 111653Z 03017KT 13/M05 A3025 RMK A01 T01311047  RH  029%=      5-min Rain = 0
KLO1 111654Z 02018KT 13/M05 A3025 RMK A01 T01311046  RH  029%=      5-min Rain = 0
KLO1 111655Z 03015KT 13/M05 A3025 RMK A01 T01321045  RH  029%=      5-min Rain = 0
KLO1 111656Z 03017KT 13/M05 A3026 RMK A01 T01331045  RH  029%=      5-min Rain = 0
KLO1 111657Z 02017KT 13/M05 A3026 RMK A01 T01311046  RH  029%=      5-min Rain = 0
KLO1 111658Z 03018G23KT 13/M05 A3026 RMK A01 T01311046  RH  029%=      5-min Rain = 0
KLO1 111659Z 03017KT 13/M05 A3026 RMK A01 T01311046  RH  029%=      5-min Rain = 0
KLO1 111700Z 03016KT 13/M05 A3026 RMK A01 T01311045  RH  029%=      5-min Rain = 0
KLO1 111701Z 04015KT 13/M04 A3025 RMK A01 T01321044  RH  029%=      5-min Rain = 0
KLO1 111702Z 03015G20KT 13/M05 A3025 RMK A01 T01331045  RH  029%=      5-min Rain = 0
KLO1 111703Z 03016KT 13/M05 A3026 RMK A01 T01321045  RH  029%=      5-min Rain = 0
KLO1 111704Z 03014G19KT 13/M04 A3026 RMK A01 T01321044  RH  029%=      5-min Rain = 0
KLO1 111705Z 02018G23KT 13/M05 A3026 RMK A01 T01341046  RH  028%=      5-min Rain = 0
KLO1 111706Z 02018KT 13/M05 A3026 RMK A01 T01331050  RH  028%=      5-min Rain = 0
KLO1 111707Z 01015KT 13/M05 A3026 RMK A01 T01331051  RH  027%=      5-min Rain = 0
KLO1 111708Z 02016G21KT 14/M05 A3026 RMK A01 T01351051  RH  027%=      5-min Rain = 0
KLO1 111709Z 02019KT 14/M05 A3026 RMK A01 T01361053  RH  026%=      5-min Rain = 0
KLO1 111710Z 02016G22KT 14/M05 A3026 RMK A01 T01361054  RH  026%=      5-min Rain = 0
KLO1 111711Z 03017KT 14/M05 A3026 RMK A01 T01361054  RH  026%=      5-min Rain = 0
KLO1 111712Z 03016KT 14/M05 A3026 RMK A01 T01361054  RH  026%=      5-min Rain = 0
KLO1 111713Z 04016KT 14/M05 A3026 RMK A01 T01381050  RH  027%=      5-min Rain = 0
KLO1 111714Z 04018KT 14/M05 A3026 RMK A01 T01411048  RH  027%=      5-min Rain = 0
KLO1 111715Z 03017KT 14/M05 A3026 RMK A01 T01421048  RH  026%=      5-min Rain = 0
KLO1 111716Z 04017KT 14/M05 A3026 RMK A01 T01421049  RH  026%=      5-min Rain = 0
KLO1 111717Z 03016KT 14/M05 A3026 RMK A01 T01411048  RH  027%=      5-min Rain = 0
KLO1 111718Z 02015KT 14/M05 A3026 RMK A01 T01401047  RH  027%=      5-min Rain = 0
KLO1 111719Z 03017KT 14/M05 A3026 RMK A01 T01411048  RH  027%=      5-min Rain = 0
KLO1 111720Z 02017KT 14/M05 A3026 RMK A01 T01391050  RH  027%=      5-min Rain = 0
KLO1 111721Z 01014KT 14/M05 A3026 RMK A01 T01381050  RH  027%=      5-min Rain = 0
KLO1 111722Z 01018KT 14/M05 A3026 RMK A01 T01401051  RH  026%=      5-min Rain = 0
KLO1 111723Z 03018KT 14/M05 A3026 RMK A01 T01391051  RH  026%=      5-min Rain = 0
KLO1 111724Z 03017KT 14/M05 A3026 RMK A01 T01401051  RH  026%=      5-min Rain = 0
KLO1 111725Z 04014KT 14/M05 A3026 RMK A01 T01391053  RH  026%=      5-min Rain = 0
KLO1 111726Z 04014G21KT 14/M05 A3026 RMK A01 T01391052  RH  026%=      5-min Rain = 0
KLO1 111727Z 03017KT 14/M05 A3026 RMK A01 T01411050  RH  026%=      5-min Rain = 0
KLO1 111728Z 03015G20KT 14/M05 A3026 RMK A01 T01411052  RH  026%=      5-min Rain = 0
KLO1 111729Z 02018KT 14/M05 A3026 RMK A01 T01401053  RH  026%=      5-min Rain = 0
KLO1 111730Z 03015G20KT 14/M05 A3026 RMK A01 T01391053  RH  026%=      5-min Rain = 0
KLO1 111731Z 04018G23KT 14/M06 A3026 RMK A01 T01391056  RH  025%=      5-min Rain = 0
KLO1 111732Z 03019KT 14/M06 A3026 RMK A01 T01371062  RH  025%=      5-min Rain = 0
KLO1 111733Z 03018KT 14/M06 A3026 RMK A01 T01371063  RH  024%=      5-min Rain = 0
KLO1 111734Z 03016KT 14/M06 A3026 RMK A01 T01381061  RH  025%=      5-min Rain = 0
KLO1 111735Z 04016KT 14/M06 A3026 RMK A01 T01391060  RH  025%=      5-min Rain = 0
KLO1 111736Z 03014KT 14/M06 A3026 RMK A01 T01401058  RH  025%=      5-min Rain = 0
KLO1 111737Z 03014KT 14/M05 A3026 RMK A01 T01421054  RH  025%=      5-min Rain = 0
KLO1 111738Z 04013KT 14/M06 A3026 RMK A01 T01421056  RH  025%=      5-min Rain = 0
KLO1 111739Z 05012KT 14/M06 A3026 RMK A01 T01411057  RH  025%=      5-min Rain = 0
KLO1 111740Z 04012KT 14/M06 A3026 RMK A01 T01401058  RH  025%=      5-min Rain = 0
KLO1 111741Z 04017G23KT 14/M05 A3026 RMK A01 T01431054  RH  025%=      5-min Rain = 0
KLO1 111742Z 03021KT 14/M06 A3026 RMK A01 T01431057  RH  025%=      5-min Rain = 0
KLO1 111743Z 03016KT 14/M06 A3026 RMK A01 T01421058  RH  025%=      5-min Rain = 0
KLO1 111744Z 02016KT 14/M06 A3026 RMK A01 T01421057  RH  025%=      5-min Rain = 0
KLO1 111745Z 03015KT 14/M06 A3026 RMK A01 T01421057  RH  025%=      5-min Rain = 0
KLO1 111746Z 03016KT 14/M06 A3027 RMK A01 T01421058  RH  025%=      5-min Rain = 0
KLO1 111747Z 03015KT 14/M06 A3027 RMK A01 T01411057  RH  025%=      5-min Rain = 0
KLO1 111748Z 04012G19KT 14/M06 A3027 RMK A01 T01411059  RH  025%=      5-min Rain = 0
KLO1 111749Z 04016KT 14/M06 A3027 RMK A01 T01391060  RH  025%=      5-min Rain = 0
KLO1 111750Z 02013KT 14/M06 A3027 RMK A01 T01401059  RH  025%=      5-min Rain = 0
KLO1 111751Z 03012G17KT 14/M06 A3027 RMK A01 T01401060  RH  024%=      5-min Rain = 0
KLO1 111752Z 02019KT 14/M06 A3027 RMK A01 T01381059  RH  025%=      5-min Rain = 0
KLO1 111753Z 02018KT 14/M06 A3027 RMK A01 T01391060  RH  024%=      5-min Rain = 0
KLO1 111754Z 01015KT 14/M06 A3027 RMK A01 T01411059  RH  025%=      5-min Rain = 0
KLO1 111755Z 01015KT 14/M06 A3026 RMK A01 T01441058  RH  024%=      5-min Rain = 0
KLO1 111756Z 02014KT 15/M06 A3027 RMK A01 T01451059  RH  024%=      5-min Rain = 0
KLO1 111757Z 02016KT 15/M06 A3027 RMK A01 T01471059  RH  024%=      5-min Rain = 0
KLO1 111758Z 03018KT 15/M06 A3027 RMK A01 T01451061  RH  023%=      5-min Rain = 0
KLO1 111759Z 04020KT 15/M07 A3027 RMK A01 T01461073  RH  021%=      5-min Rain = 0
KLO1 111800Z 04017KT 14/M08 A3027 RMK A01 T01441078  RH  021%=      5-min Rain = 0
KLO1 111801Z 04016KT 14/M08 A3027 RMK A01 T01421078  RH  021%=      5-min Rain = 0
KLO1 111802Z 02020KT 14/M08 A3027 RMK A01 T01421078  RH  021%=      5-min Rain = 0
KLO1 111803Z 03017KT 14/M08 A3027 RMK A01 T01421076  RH  021%=      5-min Rain = 0
KLO1 111804Z 03016KT 14/M08 A3027 RMK A01 T01441075  RH  021%=      5-min Rain = 0
KLO1 111805Z 02017KT 15/M08 A3027 RMK A01 T01461075  RH  021%=      5-min Rain = 0
KLO1 111806Z 03020KT 15/M08 A3027 RMK A01 T01461077  RH  021%=      5-min Rain = 0
KLO1 111807Z 03021KT 15/M08 A3027 RMK A01 T01451077  RH  021%=      5-min Rain = 0
KLO1 111808Z 03018KT 14/M08 A3027 RMK A01 T01431077  RH  021%=      5-min Rain = 0
KLO1 111809Z 04016KT 14/M08 A3027 RMK A01 T01421077  RH  021%=      5-min Rain = 0
KLO1 111810Z 03016KT 14/M08 A3027 RMK A01 T01411078  RH  021%=      5-min Rain = 0
KLO1 111811Z 04019KT 14/M08 A3027 RMK A01 T01421078  RH  021%=      5-min Rain = 0
KLO1 111812Z 03017KT 14/M08 A3027 RMK A01 T01431079  RH  021%=      5-min Rain = 0
KLO1 111813Z 02017KT 14/M08 A3027 RMK A01 T01431078  RH  021%=      5-min Rain = 0
KLO1 111814Z 03014KT 14/M08 A3027 RMK A01 T01411078  RH  021%=      5-min Rain = 0
KLO1 111815Z 02016KT 14/M08 A3027 RMK A01 T01401078  RH  021%=      5-min Rain = 0
KLO1 111816Z 02018KT 14/M08 A3027 RMK A01 T01431078  RH  021%=      5-min Rain = 0
KLO1 111817Z 01019KT 14/M08 A3027 RMK A01 T01441079  RH  021%=      5-min Rain = 0
KLO1 111818Z 02019KT 14/M08 A3027 RMK A01 T01441078  RH  021%=      5-min Rain = 0
KLO1 111819Z 02015KT 14/M08 A3027 RMK A01 T01421076  RH  021%=      5-min Rain = 0
KLO1 111820Z 02015KT 14/M08 A3027 RMK A01 T01401076  RH  022%=      5-min Rain = 0
KLO1 111821Z 01017G22KT 14/M08 A3027 RMK A01 T01401077  RH  021%=      5-min Rain = 0
KLO1 111822Z 02017KT 14/M08 A3027 RMK A01 T01421078  RH  021%=      5-min Rain = 0
KLO1 111823Z 03021KT 14/M08 A3027 RMK A01 T01441078  RH  021%=      5-min Rain = 0
KLO1 111824Z 03019G24KT 14/M08 A3028 RMK A01 T01431079  RH  021%=      5-min Rain = 0
KLO1 111825Z 02018KT 14/M08 A3028 RMK A01 T01401078  RH  021%=      5-min Rain = 0
KLO1 111826Z 02017G22KT 14/M08 A3028 RMK A01 T01411078  RH  021%=      5-min Rain = 0
KLO1 111827Z 03015KT 14/M08 A3027 RMK A01 T01411079  RH  021%=      5-min Rain = 0
KLO1 111828Z 01015KT 14/M08 A3027 RMK A01 T01401079  RH  021%=      5-min Rain = 0
KLO1 111829Z 02018KT 14/M08 A3027 RMK A01 T01401078  RH  021%=      5-min Rain = 0
KLO1 111830Z 02016KT 14/M08 A3027 RMK A01 T01401077  RH  021%=      5-min Rain = 0
KLO1 111831Z 03014KT 14/M08 A3027 RMK A01 T01421077  RH  021%=      5-min Rain = 0
KLO1 111832Z 03017KT 14/M08 A3027 RMK A01 T01441079  RH  021%=      5-min Rain = 0
KLO1 111833Z 04017KT 15/M08 A3027 RMK A01 T01451081  RH  020%=      5-min Rain = 0
KLO1 111834Z 02017KT 14/M08 A3027 RMK A01 T01441083  RH  020%=      5-min Rain = 0
KLO1 111835Z 03019KT 14/M08 A3027 RMK A01 T01431083  RH  020%=      5-min Rain = 0
KLO1 111836Z 03017KT 14/M08 A3027 RMK A01 T01441082  RH  020%=      5-min Rain = 0
KLO1 111837Z 03017KT 14/M08 A3027 RMK A01 T01441083  RH  020%=      5-min Rain = 0
KLO1 111838Z 04015KT 14/M08 A3027 RMK A01 T01431083  RH  020%=      5-min Rain = 0
KLO1 111839Z 03018G23KT 14/M08 A3027 RMK A01 T01411084  RH  020%=      5-min Rain = 0
KLO1 111840Z 03019KT 14/M08 A3027 RMK A01 T01401084  RH  020%=      5-min Rain = 0
KLO1 111841Z 03015KT 14/M08 A3027 RMK A01 T01401084  RH  020%=      5-min Rain = 0
KLO1 111842Z 02013G18KT 14/M08 A3027 RMK A01 T01401083  RH  021%=      5-min Rain = 0
KLO1 111843Z 03015KT 14/M08 A3027 RMK A01 T01401083  RH  021%=      5-min Rain = 0
KLO1 111844Z 02016KT 14/M08 A3027 RMK A01 T01371084  RH  021%=      5-min Rain = 0
KLO1 111845Z 01016G21KT 14/M09 A3027 RMK A01 T01361085  RH  021%=      5-min Rain = 0
KLO1 111846Z 03020KT 14/M09 A3027 RMK A01 T01351090  RH  020%=      5-min Rain = 0
KLO1 111847Z 03019KT 14/M09 A3027 RMK A01 T01361091  RH  020%=      5-min Rain = 0
KLO1 111848Z 02019KT 14/M09 A3027 RMK A01 T01361089  RH  020%=      5-min Rain = 0
KLO1 111849Z 02015KT 14/M09 A3027 RMK A01 T01351091  RH  020%=      5-min Rain = 0
KLO1 111850Z 03015G20KT 13/M09 A3027 RMK A01 T01341091  RH  020%=      5-min Rain = 0
KLO1 111851Z 03018KT 13/M09 A3027 RMK A01 T01341092  RH  020%=      5-min Rain = 0
KLO1 111852Z 03016KT 14/M10 A3028 RMK A01 T01351095  RH  019%=      5-min Rain = 0
KLO1 111853Z 03017KT 14/M10 A3027 RMK A01 T01351095  RH  019%=      5-min Rain = 0
KLO1 111854Z 04015KT 14/M10 A3028 RMK A01 T01351097  RH  019%=      5-min Rain = 0
KLO1 111855Z 03016KT 13/M10 A3027 RMK A01 T01341098  RH  019%=      5-min Rain = 0
KLO1 111856Z 04015KT 13/M10 A3027 RMK A01 T01331097  RH  019%=      5-min Rain = 0
KLO1 111857Z 04018KT 13/M10 A3027 RMK A01 T01331098  RH  019%=      5-min Rain = 0
KLO1 111858Z 04018KT 13/M10 A3027 RMK A01 T01331100  RH  019%=      5-min Rain = 0
KLO1 111859Z 04016KT 13/M10 A3027 RMK A01 T01321099  RH  019%=      5-min Rain = 0
KLO1 111900Z 03015KT 13/M10 A3027 RMK A01 T01311098  RH  019%=      5-min Rain = 0
KLO1 111901Z 04015KT 13/M10 A3027 RMK A01 T01321097  RH  019%=      5-min Rain = 0
KLO1 111902Z 04017KT 13/M10 A3027 RMK A01 T01341098  RH  019%=      5-min Rain = 0
KLO1 111903Z 04017KT 13/M10 A3027 RMK A01 T01321100  RH  019%=      5-min Rain = 0
KLO1 111904Z 04017KT 13/M10 A3027 RMK A01 T01311098  RH  019%=      5-min Rain = 0
KLO1 111905Z 03016KT 13/M10 A3027 RMK A01 T01311095  RH  020%=      5-min Rain = 0
KLO1 111906Z 03018KT 13/M09 A3027 RMK A01 T01311094  RH  020%=      5-min Rain = 0
KLO1 111907Z 04018KT 13/M09 A3027 RMK A01 T01311094  RH  020%=      5-min Rain = 0
KLO1 111908Z 04016KT 13/M10 A3026 RMK A01 T01311095  RH  020%=      5-min Rain = 0
KLO1 111909Z 04017KT 13/M10 A3026 RMK A01 T01301097  RH  020%=      5-min Rain = 0
KLO1 111910Z 03017KT 13/M10 A3026 RMK A01 T01301098  RH  020%=      5-min Rain = 0
KLO1 111911Z 04017KT 13/M10 A3026 RMK A01 T01291098  RH  020%=      5-min Rain = 0
KLO1 111912Z 03015KT 13/M10 A3026 RMK A01 T01281098  RH  020%=      5-min Rain = 0
KLO1 111913Z 03016KT 13/M10 A3026 RMK A01 T01271098  RH  020%=      5-min Rain = 0
KLO1 111914Z 03014KT 13/M10 A3026 RMK A01 T01291096  RH  020%=      5-min Rain = 0
KLO1 111915Z 02014KT 13/M10 A3026 RMK A01 T01311095  RH  020%=      5-min Rain = 0
KLO1 111916Z 02013KT 13/M10 A3026 RMK A01 T01291096  RH  020%=      5-min Rain = 0
KLO1 111917Z 03013KT 13/M10 A3026 RMK A01 T01281095  RH  020%=      5-min Rain = 0
KLO1 111918Z 03014KT 13/M09 A3026 RMK A01 T01281094  RH  020%=      5-min Rain = 0
KLO1 111919Z 03014KT 13/M09 A3026 RMK A01 T01291093  RH  020%=      5-min Rain = 0
KLO1 111920Z 03011KT 13/M09 A3026 RMK A01 T01281092  RH  021%=      5-min Rain = 0
KLO1 111921Z 04013KT 13/M09 A3027 RMK A01 T01281091  RH  021%=      5-min Rain = 0
KLO1 111922Z 03015KT 13/M09 A3027 RMK A01 T01301091  RH  021%=      5-min Rain = 0
KLO1 111923Z 01013KT 13/M09 A3027 RMK A01 T01301091  RH  021%=      5-min Rain = 0
KLO1 111924Z 01013KT 13/M09 A3027 RMK A01 T01291090  RH  021%=      5-min Rain = 0
KLO1 111925Z 01015KT 13/M09 A3027 RMK A01 T01281089  RH  021%=      5-min Rain = 0
KLO1 111926Z 01016KT 13/M09 A3027 RMK A01 T01281090  RH  021%=      5-min Rain = 0
KLO1 111927Z 02014KT 13/M09 A3027 RMK A01 T01281090  RH  021%=      5-min Rain = 0
KLO1 111928Z 02014KT 13/M09 A3027 RMK A01 T01281090  RH  021%=      5-min Rain = 0
KLO1 111929Z 00014KT 13/M09 A3027 RMK A01 T01281091  RH  021%=      5-min Rain = 0
KLO1 111930Z 01014KT 13/M09 A3027 RMK A01 T01261093  RH  021%=      5-min Rain = 0
KLO1 111931Z 00012KT 13/M09 A3027 RMK A01 T01251092  RH  021%=      5-min Rain = 0
KLO1 111932Z 02012KT 13/M09 A3027 RMK A01 T01251092  RH  021%=      5-min Rain = 0
KLO1 111933Z 02013KT 13/M09 A3027 RMK A01 T01261092  RH  021%=      5-min Rain = 0
KLO1 111934Z 01014KT 13/M09 A3027 RMK A01 T01271094  RH  021%=      5-min Rain = 0
KLO1 111935Z 01015KT 13/M10 A3027 RMK A01 T01261097  RH  020%=      5-min Rain = 0
KLO1 111936Z 01016KT 13/M10 A3027 RMK A01 T01251098  RH  020%=      5-min Rain = 0
KLO1 111937Z 01015G20KT 13/M10 A3027 RMK A01 T01261097  RH  020%=      5-min Rain = 0
KLO1 111938Z 03016KT 13/M10 A3027 RMK A01 T01261096  RH  020%=      5-min Rain = 0
KLO1 111939Z 03016KT 13/M10 A3027 RMK A01 T01271098  RH  020%=      5-min Rain = 0
KLO1 111940Z 03015KT 13/M10 A3027 RMK A01 T01271098  RH  020%=      5-min Rain = 0
KLO1 111941Z 03017KT 13/M10 A3027 RMK A01 T01271097  RH  020%=      5-min Rain = 0
KLO1 111942Z 03014KT 13/M10 A3026 RMK A01 T01281097  RH  020%=      5-min Rain = 0
KLO1 111943Z 03013KT 13/M10 A3026 RMK A01 T01281096  RH  020%=      5-min Rain = 0
KLO1 111944Z 03014KT 13/M10 A3026 RMK A01 T01291096  RH  020%=      5-min Rain = 0
KLO1 111945Z 03016KT 13/M10 A3026 RMK A01 T01301095  RH  020%=      5-min Rain = 0
KLO1 111946Z 02014KT 13/M09 A3026 RMK A01 T01291094  RH  020%=      5-min Rain = 0
KLO1 111947Z 01015KT 13/M09 A3026 RMK A01 T01291093  RH  020%=      5-min Rain = 0
KLO1 111948Z 01017KT 13/M09 A3026 RMK A01 T01281093  RH  020%=      5-min Rain = 0
KLO1 111949Z 01013G18KT 13/M09 A3026 RMK A01 T01281094  RH  020%=      5-min Rain = 0
KLO1 111950Z 02014KT 13/M09 A3026 RMK A01 T01271094  RH  020%=      5-min Rain = 0
KLO1 111951Z 02013KT 13/M10 A3026 RMK A01 T01271097  RH  020%=      5-min Rain = 0
KLO1 111952Z 00011KT 13/M10 A3026 RMK A01 T01271095  RH  020%=      5-min Rain = 0
KLO1 111953Z 01011KT 13/M10 A3026 RMK A01 T01291095  RH  020%=      5-min Rain = 0
KLO1 111954Z 02015KT 13/M10 A3027 RMK A01 T01311096  RH  020%=      5-min Rain = 0
KLO1 111955Z 03014KT 13/M10 A3027 RMK A01 T01311099  RH  019%=      5-min Rain = 0
KLO1 111956Z 02013KT 13/M10 A3026 RMK A01 T01301099  RH  019%=      5-min Rain = 0
KLO1 111957Z 02012KT 13/M10 A3026 RMK A01 T01311098  RH  019%=      5-min Rain = 0
KLO1 111958Z 36013KT 13/M10 A3026 RMK A01 T01321098  RH  019%=      5-min Rain = 0
KLO1 111959Z 01013G18KT 13/M10 A3026 RMK A01 T01301100  RH  019%=      5-min Rain = 0
KLO1 112000Z 02011KT 13/M10 A3026 RMK A01 T01291100  RH  019%=      5-min Rain = 0
KLO1 112001Z 02013KT 13/M10 A3026 RMK A01 T01311098  RH  019%=      5-min Rain = 0
KLO1 112002Z 04012KT 13/M10 A3026 RMK A01 T01321097  RH  019%=      5-min Rain = 0
KLO1 112003Z 03014KT 13/M10 A3026 RMK A01 T01331098  RH  019%=      5-min Rain = 0
KLO1 112004Z 04014KT 13/M10 A3026 RMK A01 T01331096  RH  019%=      5-min Rain = 0
KLO1 112005Z 03012KT 13/M10 A3026 RMK A01 T01321095  RH  020%=      5-min Rain = 0
KLO1 112006Z 04014KT 13/M10 A3026 RMK A01 T01321095  RH  020%=      5-min Rain = 0
KLO1 112007Z 04014KT 13/M10 A3026 RMK A01 T01301097  RH  020%=      5-min Rain = 0
KLO1 112008Z 03014G19KT 13/M10 A3026 RMK A01 T01291096  RH  020%=      5-min Rain = 0
KLO1 112009Z 03015KT 13/M10 A3026 RMK A01 T01301095  RH  020%=      5-min Rain = 0
KLO1 112010Z 03012KT 13/M10 A3026 RMK A01 T01301096  RH  020%=      5-min Rain = 0
KLO1 112011Z 03013KT 13/M10 A3026 RMK A01 T01291096  RH  020%=      5-min Rain = 0
KLO1 112012Z 03013KT 13/M10 A3026 RMK A01 T01291096  RH  020%=      5-min Rain = 0
KLO1 112013Z 03016KT 13/M10 A3026 RMK A01 T01311098  RH  019%=      5-min Rain = 0
KLO1 112014Z 02015KT 13/M10 A3026 RMK A01 T01301103  RH  019%=      5-min Rain = 0
KLO1 112015Z 01013KT 13/M10 A3026 RMK A01 T01301103  RH  019%=      5-min Rain = 0
KLO1 112016Z 00015KT 13/M10 A3026 RMK A01 T01301102  RH  019%=      5-min Rain = 0
KLO1 112017Z 01012KT 13/M10 A3026 RMK A01 T01311104  RH  019%=      5-min Rain = 0
KLO1 112018Z 02013KT 13/M10 A3026 RMK A01 T01311104  RH  018%=      5-min Rain = 0
KLO1 112019Z 02016G21KT 13/M11 A3026 RMK A01 T01331106  RH  018%=      5-min Rain = 0
KLO1 112020Z 03014KT 13/M11 A3026 RMK A01 T01331107  RH  018%=      5-min Rain = 0
KLO1 112021Z 03016KT 13/M11 A3026 RMK A01 T01331107  RH  018%=      5-min Rain = 0
KLO1 112022Z 03013KT 13/M11 A3026 RMK A01 T01331107  RH  018%=      5-min Rain = 0
KLO1 112023Z 01012KT 13/M11 A3026 RMK A01 T01331106  RH  018%=      5-min Rain = 0
KLO1 112024Z 01012KT 13/M11 A3026 RMK A01 T01341105  RH  018%=      5-min Rain = 0
KLO1 112025Z 02012G18KT 14/M11 A3026 RMK A01 T01351106  RH  018%=      5-min Rain = 0
KLO1 112026Z 02014G21KT 14/M11 A3026 RMK A01 T01351108  RH  017%=      5-min Rain = 0
KLO1 112027Z 03015KT 13/M11 A3026 RMK A01 T01341110  RH  017%=      5-min Rain = 0
KLO1 112028Z 02015KT 14/M11 A3026 RMK A01 T01351112  RH  017%=      5-min Rain = 0
KLO1 112029Z 02016KT 14/M11 A3026 RMK A01 T01351112  RH  017%=      5-min Rain = 0
KLO1 112030Z 02017KT 13/M11 A3026 RMK A01 T01341112  RH  017%=      5-min Rain = 0
KLO1 112031Z 03015KT 13/M11 A3026 RMK A01 T01331111  RH  017%=      5-min Rain = 0
KLO1 112032Z 03016KT 13/M11 A3027 RMK A01 T01321114  RH  017%=      5-min Rain = 0
KLO1 112033Z 03015KT 13/M12 A3027 RMK A01 T01321116  RH  017%=      5-min Rain = 0
KLO1 112034Z 03015KT 13/M12 A3027 RMK A01 T01311115  RH  017%=      5-min Rain = 0
KLO1 112035Z 03014KT 13/M11 A3027 RMK A01 T01311112  RH  017%=      5-min Rain = 0
KLO1 112036Z 03014KT 13/M11 A3026 RMK A01 T01311112  RH  017%=      5-min Rain = 0
KLO1 112037Z 02014KT 13/M11 A3026 RMK A01 T01311113  RH  017%=      5-min Rain = 0
KLO1 112038Z 02015KT 13/M11 A3026 RMK A01 T01321113  RH  017%=      5-min Rain = 0
KLO1 112039Z 03014KT 13/M11 A3026 RMK A01 T01311113  RH  017%=      5-min Rain = 0
KLO1 112040Z 04013KT 13/M11 A3026 RMK A01 T01311112  RH  017%=      5-min Rain = 0
KLO1 112041Z 04015KT 13/M11 A3026 RMK A01 T01311112  RH  017%=      5-min Rain = 0
KLO1 112042Z 03018KT 13/M12 A3026 RMK A01 T01311115  RH  017%=      5-min Rain = 0
KLO1 112043Z 03014KT 13/M12 A3026 RMK A01 T01301117  RH  017%=      5-min Rain = 0
KLO1 112044Z 03015KT 13/M12 A3026 RMK A01 T01291118  RH  017%=      5-min Rain = 0
KLO1 112045Z 03014KT 13/M12 A3026 RMK A01 T01301116  RH  017%=      5-min Rain = 0
KLO1 112046Z 03016KT 13/M11 A3026 RMK A01 T01301114  RH  017%=      5-min Rain = 0
KLO1 112047Z 03016KT 13/M11 A3026 RMK A01 T01301113  RH  017%=      5-min Rain = 0
KLO1 112048Z 02014KT 13/M11 A3026 RMK A01 T01311112  RH  017%=      5-min Rain = 0
KLO1 112049Z 03015KT 13/M11 A3026 RMK A01 T01321110  RH  017%=      5-min Rain = 0
KLO1 112050Z 03017KT 13/M11 A3026 RMK A01 T01311109  RH  018%=      5-min Rain = 0
KLO1 112051Z 02018KT 13/M11 A3026 RMK A01 T01311108  RH  018%=      5-min Rain = 0
KLO1 112052Z 02015KT 13/M11 A3025 RMK A01 T01301108  RH  018%=      5-min Rain = 0
KLO1 112053Z 01015KT 13/M11 A3025 RMK A01 T01301107  RH  018%=      5-min Rain = 0
KLO1 112054Z 01012KT 13/M11 A3025 RMK A01 T01301107  RH  018%=      5-min Rain = 0
KLO1 112055Z 00015KT 13/M11 A3025 RMK A01 T01291107  RH  018%=      5-min Rain = 0
KLO1 112056Z 01017KT 13/M11 A3025 RMK A01 T01291110  RH  018%=      5-min Rain = 0
KLO1 112057Z 00016KT 13/M11 A3025 RMK A01 T01291112  RH  018%=      5-min Rain = 0
KLO1 112058Z 01018KT 13/M11 A3025 RMK A01 T01281113  RH  018%=      5-min Rain = 0
KLO1 112059Z 02016KT 13/M11 A3026 RMK A01 T01281113  RH  018%=      5-min Rain = 0
KLO1 112100Z 02015KT 13/M11 A3026 RMK A01 T01291111  RH  018%=      5-min Rain = 0
KLO1 112101Z 02016KT 13/M11 A3026 RMK A01 T01291111  RH  018%=      5-min Rain = 0
KLO1 112102Z 02014KT 13/M11 A3026 RMK A01 T01291111  RH  018%=      5-min Rain = 0
KLO1 112103Z 02011KT 13/M11 A3026 RMK A01 T01291111  RH  018%=      5-min Rain = 0
KLO1 112104Z 02014KT 13/M11 A3026 RMK A01 T01301110  RH  018%=      5-min Rain = 0
KLO1 112105Z 01011KT 13/M11 A3025 RMK A01 T01301112  RH  017%=      5-min Rain = 0
KLO1 112106Z 01013KT 13/M11 A3025 RMK A01 T01311114  RH  017%=      5-min Rain = 0
KLO1 112107Z 01014KT 13/M12 A3025 RMK A01 T01311117  RH  017%=      5-min Rain = 0
KLO1 112108Z 02015KT 13/M12 A3025 RMK A01 T01301117  RH  017%=      5-min Rain = 0
KLO1 112109Z 03017KT 13/M12 A3025 RMK A01 T01311118  RH  017%=      5-min Rain = 0
KLO1 112110Z 02016KT 13/M12 A3025 RMK A01 T01321118  RH  016%=      5-min Rain = 0
KLO1 112111Z 02017KT 13/M12 A3025 RMK A01 T01321120  RH  016%=      5-min Rain = 0
KLO1 112112Z 03016KT 13/M12 A3025 RMK A01 T01321120  RH  016%=      5-min Rain = 0
KLO1 112113Z 01015KT 13/M12 A3025 RMK A01 T01321119  RH  016%=      5-min Rain = 0
KLO1 112114Z 02014KT 13/M12 A3025 RMK A01 T01321119  RH  016%=      5-min Rain = 0
KLO1 112115Z 02016KT 13/M12 A3025 RMK A01 T01321119  RH  016%=      5-min Rain = 0
KLO1 112116Z 03016KT 13/M12 A3025 RMK A01 T01321119  RH  016%=      5-min Rain = 0
KLO1 112117Z 03014KT 13/M12 A3025 RMK A01 T01321118  RH  016%=      5-min Rain = 0
KLO1 112118Z 03014KT 13/M12 A3025 RMK A01 T01321117  RH  016%=      5-min Rain = 0
KLO1 112119Z 02016KT 13/M12 A3025 RMK A01 T01331115  RH  017%=      5-min Rain = 0
KLO1 112120Z 03014KT 13/M12 A3025 RMK A01 T01341115  RH  017%=      5-min Rain = 0
KLO1 112121Z 04016KT 13/M11 A3025 RMK A01 T01341114  RH  017%=      5-min Rain = 0
KLO1 112122Z 03014KT 13/M12 A3025 RMK A01 T01341115  RH  017%=      5-min Rain = 0
KLO1 112123Z 03013KT 13/M11 A3025 RMK A01 T01341114  RH  017%=      5-min Rain = 0
KLO1 112124Z 03014KT 14/M12 A3024 RMK A01 T01351115  RH  016%=      5-min Rain = 0
KLO1 112125Z 03015KT 14/M12 A3024 RMK A01 T01361116  RH  016%=      5-min Rain = 0
KLO1 112126Z 03016KT 14/M11 A3024 RMK A01 T01371114  RH  016%=      5-min Rain = 0
KLO1 112127Z 02014KT 14/M11 A3025 RMK A01 T01371113  RH  017%=      5-min Rain = 0
KLO1 112128Z 02014KT 14/M11 A3024 RMK A01 T01381112  RH  017%=      5-min Rain = 0
KLO1 112129Z 03012KT 14/M11 A3025 RMK A01 T01391113  RH  016%=      5-min Rain = 0
KLO1 112130Z 04013KT 14/M12 A3025 RMK A01 T01411115  RH  016%=      5-min Rain = 0
KLO1 112131Z 03012KT 14/M12 A3024 RMK A01 T01401116  RH  016%=      5-min Rain = 0
KLO1 112132Z 04011KT 14/M12 A3024 RMK A01 T01401115  RH  016%=      5-min Rain = 0
KLO1 112133Z 03010KT 14/M11 A3024 RMK A01 T01411114  RH  016%=      5-min Rain = 0
KLO1 112134Z 02012KT 14/M11 A3024 RMK A01 T01411114  RH  016%=      5-min Rain = 0
KLO1 112135Z 02012KT 14/M11 A3024 RMK A01 T01421109  RH  017%=      5-min Rain = 0
KLO1 112136Z 03012KT 14/M11 A3024 RMK A01 T01421108  RH  017%=      5-min Rain = 0
KLO1 112137Z 03014KT 14/M11 A3024 RMK A01 T01421108  RH  017%=      5-min Rain = 0
KLO1 112138Z 04016KT 14/M11 A3024 RMK A01 T01421108  RH  017%=      5-min Rain = 0
KLO1 112139Z 04013KT 14/M11 A3024 RMK A01 T01421107  RH  017%=      5-min Rain = 0
KLO1 112140Z 03014KT 14/M11 A3024 RMK A01 T01431105  RH  017%=      5-min Rain = 0
KLO1 112141Z 03013KT 14/M11 A3024 RMK A01 T01431105  RH  017%=      5-min Rain = 0
KLO1 112142Z 04011KT 14/M11 A3024 RMK A01 T01421105  RH  017%=      5-min Rain = 0
KLO1 112143Z 04014KT 14/M10 A3024 RMK A01 T01421103  RH  017%=      5-min Rain = 0
KLO1 112144Z 03013KT 14/M10 A3024 RMK A01 T01431102  RH  017%=      5-min Rain = 0
KLO1 112145Z 02011KT 14/M10 A3024 RMK A01 T01441099  RH  018%=      5-min Rain = 0
KLO1 112146Z 03015KT 15/M10 A3024 RMK A01 T01471098  RH  017%=      5-min Rain = 0
KLO1 112147Z 02014KT 15/M10 A3024 RMK A01 T01451101  RH  017%=      5-min Rain = 0
KLO1 112148Z 01014KT 14/M10 A3024 RMK A01 T01431102  RH  017%=      5-min Rain = 0
KLO1 112149Z 02013KT 14/M10 A3024 RMK A01 T01411101  RH  018%=      5-min Rain = 0
KLO1 112150Z 02011KT 14/M10 A3024 RMK A01 T01411101  RH  018%=      5-min Rain = 0
KLO1 112151Z 02014KT 14/M10 A3024 RMK A01 T01411101  RH  018%=      5-min Rain = 0
KLO1 112152Z 02013KT 14/M10 A3024 RMK A01 T01411099  RH  018%=      5-min Rain = 0
KLO1 112153Z 02016KT 14/M10 A3024 RMK A01 T01421100  RH  018%=      5-min Rain = 0
KLO1 112154Z 03015KT 14/M10 A3024 RMK A01 T01401102  RH  018%=      5-min Rain = 0
KLO1 112155Z 03012KT 14/M10 A3024 RMK A01 T01371102  RH  018%=      5-min Rain = 0
KLO1 112156Z 02010KT 14/M10 A3024 RMK A01 T01371101  RH  018%=      5-min Rain = 0
KLO1 112157Z 02012KT 14/M10 A3024 RMK A01 T01371101  RH  018%=      5-min Rain = 0
KLO1 112158Z 02015G20KT 14/M10 A3024 RMK A01 T01371099  RH  018%=      5-min Rain = 0
KLO1 112159Z 02018KT 14/M10 A3024 RMK A01 T01381096  RH  019%=      5-min Rain = 0
KLO1 112200Z 02014KT 14/M10 A3024 RMK A01 T01361096  RH  019%=      5-min Rain = 0
KLO1 112201Z 01014KT 14/M09 A3024 RMK A01 T01361094  RH  019%=      5-min Rain = 0
KLO1 112202Z 00015KT 14/M09 A3024 RMK A01 T01361094  RH  019%=      5-min Rain = 0
KLO1 112203Z 01014KT 13/M10 A3024 RMK A01 T01341095  RH  019%=      5-min Rain = 0
KLO1 112204Z 02012KT 13/M09 A3024 RMK A01 T01341094  RH  020%=      5-min Rain = 0
KLO1 112205Z 02010KT 14/M09 A3024 RMK A01 T01361093  RH  020%=      5-min Rain = 0
KLO1 112206Z 03011KT 14/M09 A3024 RMK A01 T01361094  RH  019%=      5-min Rain = 0
KLO1 112207Z 02012KT 14/M09 A3024 RMK A01 T01361094  RH  019%=      5-min Rain = 0
KLO1 112208Z 02013KT 14/M09 A3024 RMK A01 T01371093  RH  019%=      5-min Rain = 0
KLO1 112209Z 02012KT 14/M09 A3024 RMK A01 T01361093  RH  019%=      5-min Rain = 0
KLO1 112210Z 02014KT 14/M09 A3024 RMK A01 T01351093  RH  020%=      5-min Rain = 0
KLO1 112211Z 02014KT 14/M09 A3024 RMK A01 T01361093  RH  020%=      5-min Rain = 0
KLO1 112212Z 03011KT 14/M09 A3024 RMK A01 T01351092  RH  020%=      5-min Rain = 0
KLO1 112213Z 03012KT 14/M09 A3024 RMK A01 T01351093  RH  020%=      5-min Rain = 0
KLO1 112214Z 02013KT 14/M09 A3024 RMK A01 T01351092  RH  020%=      5-min Rain = 0
KLO1 112215Z 03011KT 14/M09 A3024 RMK A01 T01351092  RH  020%=      5-min Rain = 0
KLO1 112216Z 02011KT 14/M09 A3024 RMK A01 T01361091  RH  020%=      5-min Rain = 0
KLO1 112217Z 02013KT 14/M09 A3024 RMK A01 T01371090  RH  020%=      5-min Rain = 0
KLO1 112218Z 02012KT 14/M09 A3024 RMK A01 T01371090  RH  020%=      5-min Rain = 0
KLO1 112219Z 01011KT 14/M09 A3024 RMK A01 T01361089  RH  020%=      5-min Rain = 0
KLO1 112220Z 01011KT 14/M09 A3024 RMK A01 T01371088  RH  020%=      5-min Rain = 0
KLO1 112221Z 02011KT 14/M09 A3024 RMK A01 T01371087  RH  020%=      5-min Rain = 0
KLO1 112222Z 02012KT 14/M09 A3024 RMK A01 T01381088  RH  020%=      5-min Rain = 0
KLO1 112223Z 02011KT 14/M09 A3024 RMK A01 T01381088  RH  020%=      5-min Rain = 0
KLO1 112224Z 02013KT 14/M09 A3024 RMK A01 T01361088  RH  020%=      5-min Rain = 0
KLO1 112225Z 02011KT 14/M09 A3024 RMK A01 T01371086  RH  020%=      5-min Rain = 0
KLO1 112226Z 01012KT 14/M09 A3024 RMK A01 T01371085  RH  021%=      5-min Rain = 0
KLO1 112227Z 01010KT 14/M09 A3024 RMK A01 T01381085  RH  020%=      5-min Rain = 0
KLO1 112228Z 01014KT 14/M09 A3024 RMK A01 T01381086  RH  020%=      5-min Rain = 0
KLO1 112229Z 01012KT 14/M09 A3024 RMK A01 T01381087  RH  020%=      5-min Rain = 0
KLO1 112230Z 02013KT 14/M09 A3024 RMK A01 T01371087  RH  020%=      5-min Rain = 0
KLO1 112231Z 02010KT 14/M09 A3024 RMK A01 T01371086  RH  020%=      5-min Rain = 0
KLO1 112232Z 01011KT 14/M09 A3024 RMK A01 T01381085  RH  020%=      5-min Rain = 0
KLO1 112233Z 02011KT 14/M09 A3024 RMK A01 T01381087  RH  020%=      5-min Rain = 0
KLO1 112234Z 02009KT 14/M09 A3024 RMK A01 T01371087  RH  020%=      5-min Rain = 0
KLO1 112235Z 01011KT 14/M09 A3024 RMK A01 T01371087  RH  020%=      5-min Rain = 0
KLO1 112236Z 01012KT 14/M09 A3024 RMK A01 T01361088  RH  020%=      5-min Rain = 0
KLO1 112237Z 01013KT 14/M09 A3024 RMK A01 T01361088  RH  020%=      5-min Rain = 0
KLO1 112238Z 00012KT 14/M09 A3024 RMK A01 T01361089  RH  020%=      5-min Rain = 0
KLO1 112239Z 01014KT 14/M09 A3024 RMK A01 T01361089  RH  020%=      5-min Rain = 0
KLO1 112240Z 01013KT 14/M09 A3024 RMK A01 T01361090  RH  020%=      5-min Rain = 0
KLO1 112241Z 01013KT 14/M09 A3024 RMK A01 T01361090  RH  020%=      5-min Rain = 0
KLO1 112242Z 02012KT 14/M09 A3024 RMK A01 T01361090  RH  020%=      5-min Rain = 0
KLO1 112243Z 03012KT 14/M09 A3024 RMK A01 T01361090  RH  020%=      5-min Rain = 0
KLO1 112244Z 02013KT 14/M09 A3024 RMK A01 T01371090  RH  020%=      5-min Rain = 0
KLO1 112245Z 02012KT 14/M09 A3024 RMK A01 T01361091  RH  020%=      5-min Rain = 0
KLO1 112246Z 01011KT 14/M09 A3024 RMK A01 T01371090  RH  020%=      5-min Rain = 0
KLO1 112247Z 01012KT 14/M09 A3024 RMK A01 T01371090  RH  020%=      5-min Rain = 0
KLO1 112248Z 01011KT 14/M09 A3024 RMK A01 T01381089  RH  020%=      5-min Rain = 0
KLO1 112249Z 01012KT 14/M09 A3024 RMK A01 T01381088  RH  020%=      5-min Rain = 0
KLO1 112250Z 02012KT 14/M09 A3024 RMK A01 T01381088  RH  020%=      5-min Rain = 0
KLO1 112251Z 03013KT 14/M09 A3024 RMK A01 T01381088  RH  020%=      5-min Rain = 0
KLO1 112252Z 02015KT 14/M09 A3024 RMK A01 T01391087  RH  020%=      5-min Rain = 0
KLO1 112253Z 02013KT 14/M09 A3024 RMK A01 T01391087  RH  020%=      5-min Rain = 0
KLO1 112254Z 02010KT 14/M09 A3024 RMK A01 T01381086  RH  020%=      5-min Rain = 0
KLO1 112255Z 02009KT 14/M09 A3025 RMK A01 T01391085  RH  020%=      5-min Rain = 0
KLO1 112256Z 01011KT 14/M08 A3025 RMK A01 T01401084  RH  020%=      5-min Rain = 0
KLO1 112257Z 01012KT 14/M08 A3025 RMK A01 T01401084  RH  020%=      5-min Rain = 0
KLO1 112258Z 02012KT 14/M08 A3025 RMK A01 T01401083  RH  020%=      5-min Rain = 0
KLO1 112259Z 02012KT 14/M08 A3025 RMK A01 T01411082  RH  021%=      5-min Rain = 0
KLO1 112300Z 01011KT 14/M08 A3024 RMK A01 T01411081  RH  021%=      5-min Rain = 0
KLO1 112301Z 00014KT 14/M08 A3024 RMK A01 T01421082  RH  021%=      5-min Rain = 0
KLO1 112302Z 00013KT 14/M08 A3024 RMK A01 T01411082  RH  021%=      5-min Rain = 0
KLO1 112303Z 01012KT 14/M08 A3024 RMK A01 T01401082  RH  021%=      5-min Rain = 0
KLO1 112304Z 01012KT 14/M08 A3024 RMK A01 T01391082  RH  021%=      5-min Rain = 0
KLO1 112305Z 01012KT 14/M08 A3024 RMK A01 T01391081  RH  021%=      5-min Rain = 0
KLO1 112306Z 00013KT 14/M08 A3024 RMK A01 T01391081  RH  021%=      5-min Rain = 0
KLO1 112307Z 01014KT 14/M08 A3024 RMK A01 T01381081  RH  021%=      5-min Rain = 0
KLO1 112308Z 01012KT 14/M08 A3024 RMK A01 T01391081  RH  021%=      5-min Rain = 0
KLO1 112309Z 02010KT 14/M08 A3024 RMK A01 T01381081  RH  021%=      5-min Rain = 0
KLO1 112310Z 03011KT 14/M08 A3024 RMK A01 T01381081  RH  021%=      5-min Rain = 0
KLO1 112311Z 03011KT 14/M08 A3024 RMK A01 T01391081  RH  021%=      5-min Rain = 0
KLO1 112312Z 03011KT 14/M08 A3025 RMK A01 T01391081  RH  021%=      5-min Rain = 0
KLO1 112313Z 01011KT 14/M08 A3025 RMK A01 T01391080  RH  021%=      5-min Rain = 0
KLO1 112314Z 01012KT 14/M08 A3025 RMK A01 T01391080  RH  021%=      5-min Rain = 0
KLO1 112315Z 01012KT 14/M08 A3025 RMK A01 T01401080  RH  021%=      5-min Rain = 0
KLO1 112316Z 01010KT 14/M08 A3024 RMK A01 T01391080  RH  021%=      5-min Rain = 0
KLO1 112317Z 00010KT 14/M08 A3024 RMK A01 T01391080  RH  021%=      5-min Rain = 0
KLO1 112318Z 00011KT 14/M08 A3024 RMK A01 T01401080  RH  021%=      5-min Rain = 0
KLO1 112319Z 01009KT 14/M08 A3024 RMK A01 T01391081  RH  021%=      5-min Rain = 0
KLO1 112320Z 01007KT 14/M08 A3024 RMK A01 T01391080  RH  021%=      5-min Rain = 0
KLO1 112321Z 02009KT 14/M08 A3024 RMK A01 T01381081  RH  021%=      5-min Rain = 0
KLO1 112322Z 02010KT 14/M08 A3024 RMK A01 T01381081  RH  021%=      5-min Rain = 0
KLO1 112323Z 01011KT 14/M08 A3024 RMK A01 T01391080  RH  021%=      5-min Rain = 0
KLO1 112324Z 01011KT 14/M08 A3024 RMK A01 T01391080  RH  021%=      5-min Rain = 0
KLO1 112325Z 00011KT 14/M08 A3024 RMK A01 T01391081  RH  021%=      5-min Rain = 0
KLO1 112326Z 00012KT 14/M08 A3024 RMK A01 T01391081  RH  021%=      5-min Rain = 0
KLO1 112327Z 00011KT 14/M08 A3024 RMK A01 T01391080  RH  021%=      5-min Rain = 0
KLO1 112328Z 01009KT 14/M08 A3024 RMK A01 T01391080  RH  021%=      5-min Rain = 0
KLO1 112329Z 01009KT 14/M08 A3024 RMK A01 T01391080  RH  021%=      5-min Rain = 0
KLO1 112330Z 01008KT 14/M08 A3024 RMK A01 T01391080  RH  021%=      5-min Rain = 0
KLO1 112331Z 03008KT 14/M08 A3024 RMK A01 T01391080  RH  021%=      5-min Rain = 0
KLO1 112332Z 03008KT 14/M08 A3024 RMK A01 T01401081  RH  021%=      5-min Rain = 0
KLO1 112333Z 03009KT 14/M08 A3025 RMK A01 T01401081  RH  021%=      5-min Rain = 0
KLO1 112334Z 03008KT 14/M08 A3025 RMK A01 T01391082  RH  021%=      5-min Rain = 0
KLO1 112335Z 04009KT 14/M08 A3025 RMK A01 T01391083  RH  021%=      5-min Rain = 0
KLO1 112336Z 04010KT 14/M08 A3025 RMK A01 T01391082  RH  021%=      5-min Rain = 0
KLO1 112337Z 04008KT 14/M08 A3025 RMK A01 T01391082  RH  021%=      5-min Rain = 0
KLO1 112338Z 04008KT 14/M08 A3025 RMK A01 T01391082  RH  021%=      5-min Rain = 0
KLO1 112339Z 04010KT 14/M08 A3025 RMK A01 T01391082  RH  021%=      5-min Rain = 0
KLO1 112340Z 04009KT 14/M08 A3025 RMK A01 T01401083  RH  021%=      5-min Rain = 0
KLO1 112341Z 03010KT 14/M08 A3025 RMK A01 T01401083  RH  021%=      5-min Rain = 0
KLO1 112342Z 04009KT 14/M08 A3025 RMK A01 T01401083  RH  021%=      5-min Rain = 0
KLO1 112343Z 03008KT 14/M08 A3025 RMK A01 T01401083  RH  021%=      5-min Rain = 0
KLO1 112344Z 03007KT 14/M08 A3025 RMK A01 T01401083  RH  020%=      5-min Rain = 0
KLO1 112345Z 03009KT 14/M08 A3025 RMK A01 T01401083  RH  021%=      5-min Rain = 0
KLO1 112346Z 04008KT 14/M08 A3024 RMK A01 T01401083  RH  021%=      5-min Rain = 0
KLO1 112347Z 03010KT 14/M08 A3024 RMK A01 T01411081  RH  021%=      5-min Rain = 0
KLO1 112348Z 02010KT 14/M08 A3024 RMK A01 T01411082  RH  021%=      5-min Rain = 0
KLO1 112349Z 03009KT 14/M08 A3024 RMK A01 T01411083  RH  020%=      5-min Rain = 0
KLO1 112350Z 02010KT 14/M08 A3024 RMK A01 T01421082  RH  020%=      5-min Rain = 0
KLO1 112351Z 03010KT 14/M08 A3024 RMK A01 T01411083  RH  020%=      5-min Rain = 0
KLO1 112352Z 03011KT 14/M08 A3024 RMK A01 T01411084  RH  020%=      5-min Rain = 0
KLO1 112353Z 02010KT 14/M08 A3024 RMK A01 T01421084  RH  020%=      5-min Rain = 0
KLO1 112354Z 01013KT 14/M08 A3024 RMK A01 T01421084  RH  020%=      5-min Rain = 0
KLO1 112355Z 01014KT 14/M09 A3024 RMK A01 T01421085  RH  020%=      5-min Rain = 0
KLO1 112356Z 02012KT 14/M09 A3024 RMK A01 T01421085  RH  020%=      5-min Rain = 0
KLO1 112357Z 03011KT 14/M09 A3024 RMK A01 T01421086  RH  020%=      5-min Rain = 0
KLO1 112358Z 02010KT 14/M09 A3024 RMK A01 T01421086  RH  020%=      5-min Rain = 0
KLO1 112359Z 02010KT 14/M09 A3024 RMK A01 T01421086  RH  020%=      5-min Rain = 0
KLO1 120000Z 01011KT 14/M09 A3024 RMK A01 T01421085  RH  020%=      5-min Rain = 0
KLO1 120001Z 01010KT 14/M09 A3024 RMK A01 T01421086  RH  020%=      5-min Rain = 0
KLO1 120002Z 01011KT 14/M09 A3024 RMK A01 T01421086  RH  020%=      5-min Rain = 0
KLO1 120003Z 01010KT 14/M09 A3025 RMK A01 T01411086  RH  020%=      5-min Rain = 0
KLO1 120004Z 01012KT 14/M09 A3025 RMK A01 T01411087  RH  020%=      5-min Rain = 0
KLO1 120005Z 02012KT 14/M09 A3025 RMK A01 T01401086  RH  020%=      5-min Rain = 0
KLO1 120006Z 02011KT 14/M09 A3025 RMK A01 T01411086  RH  020%=      5-min Rain = 0
KLO1 120007Z 02009KT 14/M09 A3025 RMK A01 T01401086  RH  020%=      5-min Rain = 0
KLO1 120008Z 02010KT 14/M09 A3025 RMK A01 T01401086  RH  020%=      5-min Rain = 0
KLO1 120009Z 02010KT 14/M09 A3025 RMK A01 T01401087  RH  020%=      5-min Rain = 0
KLO1 120010Z 02010KT 14/M09 A3025 RMK A01 T01401087  RH  020%=      5-min Rain = 0
KLO1 120011Z 03011KT 14/M09 A3025 RMK A01 T01401087  RH  020%=      5-min Rain = 0
KLO1 120012Z 03009KT 14/M09 A3025 RMK A01 T01391087  RH  020%=      5-min Rain = 0
KLO1 120013Z 03008KT 14/M09 A3025 RMK A01 T01391087  RH  020%=      5-min Rain = 0
KLO1 120014Z 03010KT 14/M09 A3025 RMK A01 T01381087  RH  020%=      5-min Rain = 0
KLO1 120015Z 02010KT 14/M09 A3025 RMK A01 T01391087  RH  020%=      5-min Rain = 0
KLO1 120016Z 03009KT 14/M09 A3025 RMK A01 T01381088  RH  020%=      5-min Rain = 0
KLO1 120017Z 02009KT 14/M09 A3025 RMK A01 T01381088  RH  020%=      5-min Rain = 0
KLO1 120018Z 02010KT 14/M09 A3025 RMK A01 T01381088  RH  020%=      5-min Rain = 0
KLO1 120019Z 02008KT 14/M09 A3025 RMK A01 T01381089  RH  020%=      5-min Rain = 0
KLO1 120020Z 02007KT 14/M09 A3026 RMK A01 T01381088  RH  020%=      5-min Rain = 0
KLO1 120021Z 02008KT 14/M09 A3026 RMK A01 T01391087  RH  020%=      5-min Rain = 0
KLO1 120022Z 02008KT 14/M09 A3026 RMK A01 T01381088  RH  020%=      5-min Rain = 0
KLO1 120023Z 01010KT 14/M09 A3026 RMK A01 T01381087  RH  020%=      5-min Rain = 0
KLO1 120024Z 01010KT 14/M09 A3026 RMK A01 T01381087  RH  020%=      5-min Rain = 0
KLO1 120025Z 01008KT 14/M09 A3026 RMK A01 T01381087  RH  020%=      5-min Rain = 0
KLO1 120026Z 01009KT 14/M09 A3026 RMK A01 T01381086  RH  020%=      5-min Rain = 0
KLO1 120027Z 01009KT 14/M09 A3026 RMK A01 T01381087  RH  020%=      5-min Rain = 0
KLO1 120028Z 02008KT 14/M09 A3026 RMK A01 T01381088  RH  020%=      5-min Rain = 0
KLO1 120029Z 01008KT 14/M09 A3026 RMK A01 T01381087  RH  020%=      5-min Rain = 0
KLO1 120030Z 01007KT 14/M09 A3026 RMK A01 T01371087  RH  020%=      5-min Rain = 0
KLO1 120031Z 01008KT 14/M09 A3026 RMK A01 T01371087  RH  020%=      5-min Rain = 0
KLO1 120032Z 01007KT 14/M09 A3026 RMK A01 T01371087  RH  020%=      5-min Rain = 0
KLO1 120033Z 01009KT 14/M09 A3026 RMK A01 T01371087  RH  020%=      5-min Rain = 0
KLO1 120034Z 00008KT 14/M09 A3026 RMK A01 T01371087  RH  020%=      5-min Rain = 0
KLO1 120035Z 01009KT 14/M09 A3026 RMK A01 T01371087  RH  020%=      5-min Rain = 0
KLO1 120036Z 01010KT 14/M09 A3026 RMK A01 T01361087  RH  020%=      5-min Rain = 0
KLO1 120037Z 01009KT 14/M09 A3027 RMK A01 T01371087  RH  020%=      5-min Rain = 0
KLO1 120038Z 01009KT 14/M09 A3027 RMK A01 T01361087  RH  020%=      5-min Rain = 0
KLO1 120039Z 01009KT 14/M09 A3027 RMK A01 T01361087  RH  020%=      5-min Rain = 0
KLO1 120040Z 01008KT 14/M09 A3027 RMK A01 T01351088  RH  020%=      5-min Rain = 0
KLO1 120041Z 02006KT 14/M09 A3027 RMK A01 T01351088  RH  020%=      5-min Rain = 0
KLO1 120042Z 01006KT 14/M09 A3027 RMK A01 T01351087  RH  021%=      5-min Rain = 0
KLO1 120043Z 01007KT 13/M09 A3027 RMK A01 T01341087  RH  021%=      5-min Rain = 0
KLO1 120044Z 02009KT 13/M09 A3027 RMK A01 T01331087  RH  021%=      5-min Rain = 0
KLO1 120045Z 02009KT 13/M09 A3027 RMK A01 T01331088  RH  021%=      5-min Rain = 0
KLO1 120046Z 02008KT 13/M09 A3027 RMK A01 T01331088  RH  021%=      5-min Rain = 0
KLO1 120047Z 03008KT 13/M09 A3027 RMK A01 T01321089  RH  021%=      5-min Rain = 0
KLO1 120048Z 03009KT 13/M09 A3027 RMK A01 T01311089  RH  021%=      5-min Rain = 0
KLO1 120049Z 03008KT 13/M09 A3027 RMK A01 T01311089  RH  021%=      5-min Rain = 0
KLO1 120050Z 03007KT 13/M09 A3027 RMK A01 T01311089  RH  021%=      5-min Rain = 0
KLO1 120051Z 02007KT 13/M09 A3027 RMK A01 T01301089  RH  021%=      5-min Rain = 0
KLO1 120052Z 02007KT 13/M09 A3027 RMK A01 T01291089  RH  021%=      5-min Rain = 0
KLO1 120053Z 02007KT 13/M09 A3027 RMK A01 T01291089  RH  021%=      5-min Rain = 0
KLO1 120054Z 02006KT 13/M09 A3027 RMK A01 T01281089  RH  021%=      5-min Rain = 0
KLO1 120055Z 02007KT 13/M09 A3027 RMK A01 T01271089  RH  021%=      5-min Rain = 0
KLO1 120056Z 02007KT 13/M09 A3027 RMK A01 T01271089  RH  021%=      5-min Rain = 0
KLO1 120057Z 02007KT 13/M09 A3027 RMK A01 T01271089  RH  021%=      5-min Rain = 0
KLO1 120058Z 01006KT 13/M09 A3027 RMK A01 T01271089  RH  021%=      5-min Rain = 0
KLO1 120059Z 02006KT 13/M09 A3027 RMK A01 T01271089  RH  021%=      5-min Rain = 0
KLO1 120100Z 02006KT 13/M09 A3027 RMK A01 T01261089  RH  021%=      5-min Rain = 0
KLO1 120101Z 02007KT 13/M09 A3027 RMK A01 T01261089  RH  021%=      5-min Rain = 0
KLO1 120102Z 02007KT 13/M09 A3027 RMK A01 T01251089  RH  022%=      5-min Rain = 0
KLO1 120103Z 02007KT 13/M09 A3027 RMK A01 T01251090  RH  022%=      5-min Rain = 0
KLO1 120104Z 02006KT 13/M09 A3027 RMK A01 T01251089  RH  022%=      5-min Rain = 0
KLO1 120105Z 02006KT 12/M09 A3027 RMK A01 T01241089  RH  022%=      5-min Rain = 0
KLO1 120106Z 02006KT 12/M09 A3027 RMK A01 T01231089  RH  022%=      5-min Rain = 0
KLO1 120107Z 02006KT 12/M09 A3027 RMK A01 T01231089  RH  022%=      5-min Rain = 0
KLO1 120108Z 02006KT 12/M09 A3027 RMK A01 T01231089  RH  022%=      5-min Rain = 0
KLO1 120109Z 02005KT 12/M09 A3027 RMK A01 T01231089  RH  022%=      5-min Rain = 0
KLO1 120110Z 02005KT 12/M09 A3027 RMK A01 T01221089  RH  022%=      5-min Rain = 0
KLO1 120111Z 02005KT 12/M09 A3027 RMK A01 T01221089  RH  022%=      5-min Rain = 0
KLO1 120112Z 02005KT 12/M09 A3027 RMK A01 T01221089  RH  022%=      5-min Rain = 0
KLO1 120113Z 02006KT 12/M09 A3027 RMK A01 T01221089  RH  022%=      5-min Rain = 0
KLO1 120114Z 02006KT 12/M09 A3028 RMK A01 T01201089  RH  022%=      5-min Rain = 0
KLO1 120115Z 02005KT 12/M09 A3028 RMK A01 T01201089  RH  022%=      5-min Rain = 0
KLO1 120116Z 02006KT 12/M09 A3028 RMK A01 T01191089  RH  022%=      5-min Rain = 0
KLO1 120117Z 02006KT 12/M09 A3028 RMK A01 T01181089  RH  023%=      5-min Rain = 0
KLO1 120118Z 02006KT 12/M09 A3028 RMK A01 T01171089  RH  023%=      5-min Rain = 0
KLO1 120119Z 02006KT 12/M09 A3028 RMK A01 T01171089  RH  023%=      5-min Rain = 0
KLO1 120120Z 02006KT 12/M09 A3028 RMK A01 T01161089  RH  023%=      5-min Rain = 0
KLO1 120121Z 02005KT 12/M09 A3028 RMK A01 T01151089  RH  023%=      5-min Rain = 0
KLO1 120122Z 02006KT 12/M09 A3028 RMK A01 T01151089  RH  023%=      5-min Rain = 0
KLO1 120123Z 02006KT 11/M09 A3028 RMK A01 T01141089  RH  023%=      5-min Rain = 0
KLO1 120124Z 02006KT 11/M09 A3028 RMK A01 T01131090  RH  023%=      5-min Rain = 0
KLO1 120125Z 02006KT 11/M09 A3028 RMK A01 T01121091  RH  023%=      5-min Rain = 0
KLO1 120126Z 02006KT 11/M09 A3028 RMK A01 T01111091  RH  023%=      5-min Rain = 0
KLO1 120127Z 02006KT 11/M09 A3028 RMK A01 T01101090  RH  024%=      5-min Rain = 0
KLO1 120128Z 02005KT 11/M09 A3028 RMK A01 T01091090  RH  024%=      5-min Rain = 0
KLO1 120129Z 02005KT 11/M09 A3028 RMK A01 T01091090  RH  024%=      5-min Rain = 0
KLO1 120130Z 02005KT 11/M09 A3028 RMK A01 T01081090  RH  024%=      5-min Rain = 0
KLO1 120131Z 02005KT 11/M09 A3028 RMK A01 T01081090  RH  024%=      5-min Rain = 0
KLO1 120132Z 02005KT 11/M09 A3028 RMK A01 T01081090  RH  024%=      5-min Rain = 0
KLO1 120133Z 02005KT 11/M09 A3028 RMK A01 T01081090  RH  024%=      5-min Rain = 0
KLO1 120134Z 02005KT 11/M09 A3028 RMK A01 T01071091  RH  024%=      5-min Rain = 0
KLO1 120135Z 02005KT 11/M09 A3028 RMK A01 T01061091  RH  024%=      5-min Rain = 0
KLO1 120136Z 02005KT 11/M09 A3028 RMK A01 T01051092  RH  024%=      5-min Rain = 0
KLO1 120137Z 02005KT 10/M09 A3028 RMK A01 T01041092  RH  024%=      5-min Rain = 0
KLO1 120138Z 02005KT 10/M09 A3028 RMK A01 T01041092  RH  024%=      5-min Rain = 0
KLO1 120139Z 02005KT 11/M09 A3028 RMK A01 T01051091  RH  024%=      5-min Rain = 0
KLO1 120140Z 01005KT 11/M09 A3028 RMK A01 T01051091  RH  024%=      5-min Rain = 0
KLO1 120141Z 01006KT 11/M09 A3028 RMK A01 T01061091  RH  024%=      5-min Rain = 0
KLO1 120142Z 01006KT 11/M09 A3028 RMK A01 T01061090  RH  024%=      5-min Rain = 0
KLO1 120143Z 01006KT 11/M09 A3028 RMK A01 T01081089  RH  024%=      5-min Rain = 0
KLO1 120144Z 01006KT 11/M09 A3028 RMK A01 T01091089  RH  024%=      5-min Rain = 0
KLO1 120145Z 01005KT 11/M09 A3028 RMK A01 T01101088  RH  024%=      5-min Rain = 0
KLO1 120146Z 01006KT 11/M09 A3028 RMK A01 T01111087  RH  024%=      5-min Rain = 0
KLO1 120147Z 01005KT 11/M09 A3028 RMK A01 T01121087  RH  024%=      5-min Rain = 0
KLO1 120148Z 01005KT 11/M09 A3028 RMK A01 T01121088  RH  024%=      5-min Rain = 0
KLO1 120149Z 01005KT 11/M09 A3028 RMK A01 T01121087  RH  024%=      5-min Rain = 0
KLO1 120150Z 01005KT 11/M09 A3028 RMK A01 T01121088  RH  024%=      5-min Rain = 0
KLO1 120151Z 01005KT 11/M09 A3028 RMK A01 T01121088  RH  024%=      5-min Rain = 0
KLO1 120152Z 01005KT 11/M09 A3028 RMK A01 T01111088  RH  024%=      5-min Rain = 0
KLO1 120153Z 01006KT 11/M09 A3028 RMK A01 T01111087  RH  024%=      5-min Rain = 0
KLO1 120154Z 01006KT 11/M09 A3028 RMK A01 T01101086  RH  025%=      5-min Rain = 0
KLO1 120155Z 01006KT 11/M08 A3028 RMK A01 T01091084  RH  025%=      5-min Rain = 0
KLO1 120156Z 01006KT 11/M08 A3028 RMK A01 T01081083  RH  025%=      5-min Rain = 0
KLO1 120157Z 01006KT 11/M08 A3029 RMK A01 T01081082  RH  025%=      5-min Rain = 0
KLO1 120158Z 01006KT 11/M08 A3029 RMK A01 T01081081  RH  026%=      5-min Rain = 0
KLO1 120159Z 01005KT 11/M08 A3029 RMK A01 T01081080  RH  026%=      5-min Rain = 0
KLO1 120200Z 00005KT 11/M08 A3029 RMK A01 T01081080  RH  026%=      5-min Rain = 0
KLO1 120201Z 01005KT 11/M08 A3029 RMK A01 T01081082  RH  026%=      5-min Rain = 0
KLO1 120202Z 01005KT 11/M08 A3029 RMK A01 T01081084  RH  025%=      5-min Rain = 0
KLO1 120203Z 01006KT 11/M09 A3029 RMK A01 T01081086  RH  025%=      5-min Rain = 0
KLO1 120204Z 01005KT 11/M09 A3029 RMK A01 T01081087  RH  025%=      5-min Rain = 0
KLO1 120205Z 01005KT 11/M09 A3029 RMK A01 T01081088  RH  024%=      5-min Rain = 0
KLO1 120206Z 01005KT 11/M09 A3029 RMK A01 T01081089  RH  024%=      5-min Rain = 0
KLO1 120207Z 01005KT 11/M09 A3029 RMK A01 T01081089  RH  024%=      5-min Rain = 0
KLO1 120208Z 01005KT 11/M09 A3029 RMK A01 T01071090  RH  024%=      5-min Rain = 0
KLO1 120209Z 01005KT 11/M09 A3029 RMK A01 T01051091  RH  024%=      5-min Rain = 0
KLO1 120210Z 02005KT 10/M09 A3029 RMK A01 T01031092  RH  024%=      5-min Rain = 0
KLO1 120211Z 02005KT 10/M09 A3029 RMK A01 T01011094  RH  024%=      5-min Rain = 0
KLO1 120212Z 02005KT 10/M10 A3029 RMK A01 T00991096  RH  024%=      5-min Rain = 0
KLO1 120213Z 02005KT 10/M10 A3029 RMK A01 T00971096  RH  025%=      5-min Rain = 0
KLO1 120214Z 02005KT 10/M10 A3029 RMK A01 T00951095  RH  025%=      5-min Rain = 0
KLO1 120215Z 02005KT 09/M09 A3029 RMK A01 T00941094  RH  026%=      5-min Rain = 0
KLO1 120216Z 02005KT 09/M09 A3029 RMK A01 T00931093  RH  026%=      5-min Rain = 0
KLO1 120217Z 02005KT 09/M09 A3029 RMK A01 T00921093  RH  026%=      5-min Rain = 0
KLO1 120218Z 02005KT 09/M09 A3029 RMK A01 T00901094  RH  026%=      5-min Rain = 0
KLO1 120219Z 02005KT 09/M09 A3029 RMK A01 T00881092  RH  027%=      5-min Rain = 0
KLO1 120220Z 02005KT 09/M09 A3029 RMK A01 T00871090  RH  028%=      5-min Rain = 0
KLO1 120221Z 02006KT 09/M09 A3029 RMK A01 T00871088  RH  028%=      5-min Rain = 0
KLO1 120222Z 02006KT 09/M09 A3029 RMK A01 T00891086  RH  028%=      5-min Rain = 0
KLO1 120223Z 02005KT 09/M09 A3029 RMK A01 T00901085  RH  028%=      5-min Rain = 0
KLO1 120224Z 02005KT 09/M09 A3029 RMK A01 T00911085  RH  028%=      5-min Rain = 0
KLO1 120225Z 02005KT 09/M09 A3029 RMK A01 T00931086  RH  027%=      5-min Rain = 0
KLO1 120226Z 02005KT 09/M09 A3029 RMK A01 T00931087  RH  027%=      5-min Rain = 0
KLO1 120227Z 02005KT 09/M09 A3029 RMK A01 T00931088  RH  027%=      5-min Rain = 0
KLO1 120228Z 02005KT 09/M09 A303 RMK A01 T00921088  RH  027%=      5-min Rain = 0
KLO1 120229Z 02005KT 09/M09 A303 RMK A01 T00911089  RH  027%=      5-min Rain = 0
KLO1 120230Z 02005KT 09/M09 A3029 RMK A01 T00911089  RH  027%=      5-min Rain = 0
KLO1 120231Z 02005KT 09/M09 A3029 RMK A01 T00901089  RH  027%=      5-min Rain = 0
KLO1 120232Z 02005KT 09/M09 A303 RMK A01 T00901088  RH  028%=      5-min Rain = 0
KLO1 120233Z 02004KT 09/M09 A303 RMK A01 T00891088  RH  028%=      5-min Rain = 0
KLO1 120234Z 02004KT 09/M09 A303 RMK A01 T00891088  RH  028%=      5-min Rain = 0
KLO1 120235Z 01004KT 09/M09 A303 RMK A01 T00891088  RH  028%=      5-min Rain = 0
KLO1 120236Z 01005KT 09/M09 A303 RMK A01 T00901087  RH  028%=      5-min Rain = 0
KLO1 120237Z 01005KT 09/M09 A303 RMK A01 T00901087  RH  028%=      5-min Rain = 0
KLO1 120238Z 00005KT 09/M09 A303 RMK A01 T00911087  RH  028%=      5-min Rain = 0
KLO1 120239Z 00005KT 09/M09 A303 RMK A01 T00921085  RH  028%=      5-min Rain = 0
KLO1 120240Z 01006KT 09/M09 A303 RMK A01 T00921085  RH  028%=      5-min Rain = 0
KLO1 120241Z 01006KT 09/M08 A303 RMK A01 T00931084  RH  028%=      5-min Rain = 0
KLO1 120242Z 01006KT 09/M08 A303 RMK A01 T00931084  RH  028%=      5-min Rain = 0
KLO1 120243Z 01005KT 09/M08 A303 RMK A01 T00941084  RH  028%=      5-min Rain = 0
KLO1 120244Z 01005KT 09/M09 A303 RMK A01 T00941085  RH  027%=      5-min Rain = 0
KLO1 120245Z 01005KT 09/M09 A303 RMK A01 T00941085  RH  027%=      5-min Rain = 0
KLO1 120246Z 01005KT 10/M09 A303 RMK A01 T00951085  RH  027%=      5-min Rain = 0
KLO1 120247Z 00004KT 10/M08 A303 RMK A01 T00971084  RH  027%=      5-min Rain = 0
KLO1 120248Z 00004KT 10/M08 A303 RMK A01 T00981084  RH  027%=      5-min Rain = 0
KLO1 120249Z 00004KT 10/M08 A303 RMK A01 T00981084  RH  027%=      5-min Rain = 0
KLO1 120250Z 01004KT 10/M09 A303 RMK A01 T00991085  RH  027%=      5-min Rain = 0
KLO1 120251Z 01005KT 10/M08 A303 RMK A01 T00991084  RH  027%=      5-min Rain = 0
KLO1 120252Z 01004KT 10/M09 A303 RMK A01 T00991085  RH  027%=      5-min Rain = 0
KLO1 120253Z 01004KT 10/M09 A303 RMK A01 T00981086  RH  026%=      5-min Rain = 0
KLO1 120254Z 01004KT 10/M09 A303 RMK A01 T00971087  RH  026%=      5-min Rain = 0
KLO1 120255Z 00004KT 10/M09 A303 RMK A01 T00971087  RH  026%=      5-min Rain = 0
KLO1 120256Z 00004KT 10/M09 A303 RMK A01 T00961088  RH  026%=      5-min Rain = 0
KLO1 120257Z 00004KT 10/M09 A303 RMK A01 T00951089  RH  026%=      5-min Rain = 0
KLO1 120258Z 01004KT 09/M09 A303 RMK A01 T00941089  RH  027%=      5-min Rain = 0
KLO1 120259Z 01004KT 09/M09 A303 RMK A01 T00931090  RH  026%=      5-min Rain = 0
KLO1 120300Z 01004KT 09/M09 A3031 RMK A01 T00931090  RH  026%=      5-min Rain = 0
KLO1 120301Z 01004KT 09/M09 A3031 RMK A01 T00931091  RH  026%=      5-min Rain = 0
KLO1 120302Z 01004KT 09/M09 A3031 RMK A01 T00931090  RH  026%=      5-min Rain = 0
KLO1 120303Z 00004KT 09/M09 A3031 RMK A01 T00931090  RH  026%=      5-min Rain = 0
KLO1 120304Z 01004KT 10/M09 A3031 RMK A01 T00951089  RH  026%=      5-min Rain = 0
KLO1 120305Z 00004KT 10/M09 A3031 RMK A01 T00951089  RH  026%=      5-min Rain = 0
KLO1 120306Z 00004KT 09/M09 A3031 RMK A01 T00941090  RH  026%=      5-min Rain = 0
KLO1 120307Z 01004KT 09/M09 A3031 RMK A01 T00931091  RH  026%=      5-min Rain = 0
KLO1 120308Z 00004KT 09/M09 A3031 RMK A01 T00931091  RH  026%=      5-min Rain = 0
KLO1 120309Z 00004KT 09/M09 A3031 RMK A01 T00921092  RH  026%=      5-min Rain = 0
KLO1 120310Z 00004KT 09/M09 A3031 RMK A01 T00901092  RH  027%=      5-min Rain = 0
KLO1 120311Z 01004KT 09/M09 A3031 RMK A01 T00901091  RH  027%=      5-min Rain = 0
KLO1 120312Z 00003KT 09/M09 A3031 RMK A01 T00901091  RH  027%=      5-min Rain = 0
KLO1 120313Z 01004KT 09/M09 A3031 RMK A01 T00911091  RH  027%=      5-min Rain = 0
KLO1 120314Z 00004KT 09/M09 A3031 RMK A01 T00901091  RH  027%=      5-min Rain = 0
KLO1 120315Z 00004KT 09/M09 A3031 RMK A01 T00901092  RH  027%=      5-min Rain = 0
KLO1 120316Z 00004KT 09/M09 A3031 RMK A01 T00901092  RH  027%=      5-min Rain = 0
KLO1 120317Z 01003KT 09/M09 A3031 RMK A01 T00891092  RH  027%=      5-min Rain = 0
KLO1 120318Z 00003KT 09/M09 A3031 RMK A01 T00891092  RH  027%=      5-min Rain = 0
KLO1 120319Z 00003KT 09/M09 A3031 RMK A01 T00881092  RH  027%=      5-min Rain = 0
KLO1 120320Z 00003KT 09/M09 A3031 RMK A01 T00881092  RH  027%=      5-min Rain = 0
KLO1 120321Z 00003KT 09/M09 A3031 RMK A01 T00871092  RH  027%=      5-min Rain = 0
KLO1 120322Z 36003KT 09/M09 A3031 RMK A01 T00871092  RH  027%=      5-min Rain = 0
KLO1 120323Z 36004KT 09/M09 A3031 RMK A01 T00861092  RH  027%=      5-min Rain = 0
KLO1 120324Z 36003KT 09/M09 A3031 RMK A01 T00851094  RH  027%=      5-min Rain = 0
KLO1 120325Z 36003KT 08/M09 A3031 RMK A01 T00841094  RH  027%=      5-min Rain = 0
KLO1 120326Z 36003KT 08/M09 A3031 RMK A01 T00821094  RH  028%=      5-min Rain = 0
KLO1 120327Z 00002KT 08/M10 A3031 RMK A01 T00801096  RH  028%=      5-min Rain = 0
KLO1 120328Z 02001KT 08/M10 A3031 RMK A01 T00761098  RH  028%=      5-min Rain = 0
KLO1 120329Z 00001KT 08/M10 A3031 RMK A01 T00751097  RH  028%=      5-min Rain = 0
KLO1 120330Z 36002KT 07/M10 A3031 RMK A01 T00741096  RH  029%=      5-min Rain = 0
KLO1 120331Z 35002KT 08/M10 A3031 RMK A01 T00751095  RH  029%=      5-min Rain = 0
KLO1 120332Z 36002KT 07/M10 A3031 RMK A01 T00741095  RH  029%=      5-min Rain = 0
KLO1 120333Z 35002KT 08/M09 A3031 RMK A01 T00751094  RH  029%=      5-min Rain = 0
KLO1 120334Z 36002KT 08/M09 A3031 RMK A01 T00751094  RH  029%=      5-min Rain = 0
KLO1 120335Z 36002KT 08/M09 A3031 RMK A01 T00751094  RH  029%=      5-min Rain = 0
KLO1 120336Z 36002KT 08/M10 A3031 RMK A01 T00751095  RH  029%=      5-min Rain = 0
KLO1 120337Z 35002KT 08/M10 A3031 RMK A01 T00751095  RH  029%=      5-min Rain = 0
KLO1 120338Z 34001KT 07/M10 A3031 RMK A01 T00741096  RH  029%=      5-min Rain = 0
KLO1 120339Z 33001KT 07/M10 A3032 RMK A01 T00741097  RH  029%=      5-min Rain = 0
KLO1 120340Z 33001KT 07/M10 A3032 RMK A01 T00731098  RH  029%=      5-min Rain = 0
KLO1 120341Z 32000KT 07/M10 A3032 RMK A01 T00721098  RH  029%=      5-min Rain = 0
KLO1 120342Z 31000KT 07/M10 A3032 RMK A01 T00701098  RH  029%=      5-min Rain = 0
KLO1 120343Z 00000KT 07/M10 A3032 RMK A01 T00691100  RH  029%=      5-min Rain = 0
KLO1 120344Z 00000KT 07/M10 A3032 RMK A01 T00691101  RH  029%=      5-min Rain = 0
KLO1 120345Z 00000KT 07/M10 A3032 RMK A01 T00671104  RH  028%=      5-min Rain = 0
KLO1 120346Z 25000KT 07/M11 A3032 RMK A01 T00651107  RH  028%=      5-min Rain = 0
KLO1 120347Z 25000KT 06/M11 A3032 RMK A01 T00631109  RH  028%=      5-min Rain = 0
KLO1 120348Z 25000KT 06/M11 A3032 RMK A01 T00621109  RH  028%=      5-min Rain = 0
KLO1 120349Z 00000KT 06/M11 A3032 RMK A01 T00611108  RH  029%=      5-min Rain = 0
KLO1 120350Z 00000KT 06/M11 A3032 RMK A01 T00611108  RH  029%=      5-min Rain = 0
KLO1 120351Z 00000KT 06/M11 A3032 RMK A01 T00611107  RH  029%=      5-min Rain = 0
KLO1 120352Z 30001KT 06/M11 A3032 RMK A01 T00611107  RH  029%=      5-min Rain = 0
KLO1 120353Z 30001KT 06/M11 A3032 RMK A01 T00621107  RH  029%=      5-min Rain = 0
KLO1 120354Z 31001KT 06/M11 A3032 RMK A01 T00631107  RH  029%=      5-min Rain = 0
KLO1 120355Z 31001KT 06/M11 A3033 RMK A01 T00631108  RH  028%=      5-min Rain = 0
KLO1 120356Z 31002KT 06/M11 A3033 RMK A01 T00621110  RH  028%=      5-min Rain = 0
KLO1 120357Z 31002KT 06/M11 A3033 RMK A01 T00601111  RH  028%=      5-min Rain = 0
KLO1 120358Z 31002KT 06/M11 A3033 RMK A01 T00581111  RH  028%=      5-min Rain = 0
KLO1 120359Z 31002KT 06/M11 A3033 RMK A01 T00571112  RH  028%=      5-min Rain = 0
KLO1 120400Z 31003KT 06/M11 A3033 RMK A01 T00571112  RH  028%=      5-min Rain = 0
KLO1 120401Z 31003KT 06/M11 A3033 RMK A01 T00571112  RH  029%=      5-min Rain = 0
KLO1 120402Z 31003KT 06/M11 A3033 RMK A01 T00561112  RH  029%=      5-min Rain = 0
KLO1 120403Z 32003KT 06/M11 A3033 RMK A01 T00561112  RH  029%=      5-min Rain = 0
KLO1 120404Z 32003KT 06/M11 A3033 RMK A01 T00551112  RH  029%=      5-min Rain = 0
KLO1 120405Z 33003KT 05/M11 A3033 RMK A01 T00541111  RH  029%=      5-min Rain = 0
KLO1 120406Z 33003KT 06/M11 A3033 RMK A01 T00551107  RH  030%=      5-min Rain = 0
KLO1 120407Z 33003KT 06/M11 A3033 RMK A01 T00571105  RH  030%=      5-min Rain = 0
KLO1 120408Z 33004KT 06/M10 A3033 RMK A01 T00581103  RH  030%=      5-min Rain = 0
KLO1 120409Z 33004KT 06/M10 A3033 RMK A01 T00591102  RH  030%=      5-min Rain = 0
KLO1 120410Z 33004KT 06/M10 A3033 RMK A01 T00611102  RH  030%=      5-min Rain = 0
KLO1 120411Z 33004KT 06/M10 A3033 RMK A01 T00621102  RH  030%=      5-min Rain = 0
KLO1 120412Z 33004KT 06/M10 A3033 RMK A01 T00641101  RH  030%=      5-min Rain = 0
KLO1 120413Z 33005KT 07/M10 A3033 RMK A01 T00651102  RH  029%=      5-min Rain = 0
KLO1 120414Z 33005KT 07/M10 A3033 RMK A01 T00651102  RH  029%=      5-min Rain = 0
KLO1 120415Z 33005KT 07/M10 A3033 RMK A01 T00651102  RH  029%=      5-min Rain = 0
KLO1 120416Z 33005KT 06/M10 A3033 RMK A01 T00631103  RH  029%=      5-min Rain = 0
KLO1 120417Z 33005KT 06/M10 A3033 RMK A01 T00621104  RH  029%=      5-min Rain = 0
KLO1 120418Z 33005KT 06/M10 A3033 RMK A01 T00611104  RH  029%=      5-min Rain = 0
KLO1 120419Z 34005KT 06/M10 A3033 RMK A01 T00611103  RH  030%=      5-min Rain = 0
KLO1 120420Z 34005KT 06/M10 A3033 RMK A01 T00621103  RH  030%=      5-min Rain = 0
KLO1 120421Z 34005KT 06/M10 A3033 RMK A01 T00621102  RH  030%=      5-min Rain = 0
KLO1 120422Z 33004KT 06/M10 A3033 RMK A01 T00631102  RH  030%=      5-min Rain = 0
KLO1 120423Z 33004KT 06/M10 A3034 RMK A01 T00641100  RH  030%=      5-min Rain = 0
KLO1 120424Z 33004KT 07/M10 A3034 RMK A01 T00651099  RH  030%=      5-min Rain = 0
KLO1 120425Z 32005KT 07/M10 A3034 RMK A01 T00661098  RH  030%=      5-min Rain = 0
KLO1 120426Z 31005KT 07/M10 A3034 RMK A01 T00671097  RH  030%=      5-min Rain = 0
KLO1 120427Z 32005KT 07/M10 A3034 RMK A01 T00681097  RH  030%=      5-min Rain = 0
KLO1 120428Z 32005KT 07/M10 A3034 RMK A01 T00691098  RH  029%=      5-min Rain = 0
KLO1 120429Z 33005KT 07/M10 A3034 RMK A01 T00691098  RH  029%=      5-min Rain = 0
KLO1 120430Z 34005KT 07/M10 A3034 RMK A01 T00691099  RH  029%=      5-min Rain = 0
KLO1 120431Z 34005KT 07/M10 A3034 RMK A01 T00681101  RH  029%=      5-min Rain = 0
KLO1 120432Z 35005KT 07/M10 A3034 RMK A01 T00671101  RH  029%=      5-min Rain = 0
KLO1 120433Z 36005KT 07/M10 A3034 RMK A01 T00671100  RH  029%=      5-min Rain = 0
KLO1 120434Z 35005KT 07/M10 A3034 RMK A01 T00701095  RH  030%=      5-min Rain = 0
KLO1 120435Z 35006KT 07/M09 A3034 RMK A01 T00721094  RH  030%=      5-min Rain = 0
KLO1 120436Z 36006KT 07/M09 A3034 RMK A01 T00731093  RH  030%=      5-min Rain = 0
KLO1 120437Z 35007KT 08/M09 A3034 RMK A01 T00751091  RH  030%=      5-min Rain = 0
KLO1 120438Z 36007KT 08/M09 A3034 RMK A01 T00771090  RH  029%=      5-min Rain = 0
KLO1 120439Z 36007KT 08/M09 A3034 RMK A01 T00781091  RH  029%=      5-min Rain = 0
KLO1 120440Z 35007KT 08/M09 A3034 RMK A01 T00791092  RH  029%=      5-min Rain = 0
KLO1 120441Z 00008KT 08/M09 A3034 RMK A01 T00791093  RH  028%=      5-min Rain = 0
KLO1 120442Z 00007KT 08/M09 A3034 RMK A01 T00791094  RH  028%=      5-min Rain = 0
KLO1 120443Z 36007KT 08/M10 A3034 RMK A01 T00791095  RH  028%=      5-min Rain = 0
KLO1 120444Z 00007KT 08/M10 A3034 RMK A01 T00781096  RH  028%=      5-min Rain = 0
KLO1 120445Z 00006KT 08/M10 A3034 RMK A01 T00771096  RH  028%=      5-min Rain = 0
KLO1 120446Z 36006KT 08/M10 A3034 RMK A01 T00771097  RH  028%=      5-min Rain = 0
KLO1 120447Z 00007KT 08/M10 A3034 RMK A01 T00761096  RH  028%=      5-min Rain = 0
KLO1 120448Z 36007KT 08/M10 A3034 RMK A01 T00761096  RH  028%=      5-min Rain = 0
KLO1 120449Z 00007KT 08/M10 A3034 RMK A01 T00771096  RH  028%=      5-min Rain = 0
KLO1 120450Z 01006KT 08/M10 A3034 RMK A01 T00791095  RH  028%=      5-min Rain = 0
KLO1 120451Z 01006KT 08/M10 A3034 RMK A01 T00791095  RH  028%=      5-min Rain = 0
KLO1 120452Z 01006KT 08/M10 A3034 RMK A01 T00801095  RH  028%=      5-min Rain = 0
KLO1 120453Z 01005KT 08/M10 A3034 RMK A01 T00801095  RH  028%=      5-min Rain = 0
KLO1 120454Z 01006KT 08/M10 A3034 RMK A01 T00801095  RH  028%=      5-min Rain = 0
KLO1 120455Z 01005KT 08/M10 A3034 RMK A01 T00781096  RH  028%=      5-min Rain = 0
KLO1 120456Z 01005KT 08/M10 A3034 RMK A01 T00771096  RH  028%=      5-min Rain = 0
KLO1 120457Z 01005KT 08/M10 A3034 RMK A01 T00751096  RH  029%=      5-min Rain = 0
KLO1 120458Z 02005KT 07/M10 A3034 RMK A01 T00741096  RH  029%=      5-min Rain = 0
KLO1 120459Z 02005KT 07/M10 A3034 RMK A01 T00741095  RH  029%=      5-min Rain = 0

Page generated in 0.0586 seconds.